Observation data for Van Horn on 02/14/2020      Previous  Date  Next       Current Mesonet Observations  Soil Data  Daily Summary Page  Observations in Plain Language
KVA1 140600Z 28003KT 03/01 A3017 RMK A01 T00280007  RH  086%=      5-min Rain = 0
KVA1 140601Z 27003KT 03/01 A3017 RMK A01 T00270006  RH  086%=      5-min Rain = 0
KVA1 140602Z 26003KT 03/01 A3017 RMK A01 T00270006  RH  086%=      5-min Rain = 0
KVA1 140603Z 23003KT 03/01 A3017 RMK A01 T00270007  RH  087%=      5-min Rain = 0
KVA1 140604Z 20004KT 03/01 A3017 RMK A01 T00270007  RH  087%=      5-min Rain = 0
KVA1 140605Z 19006KT 03/01 A3018 RMK A01 T00270008  RH  087%=      5-min Rain = 0
KVA1 140606Z 19007KT 03/01 A3018 RMK A01 T00260008  RH  088%=      5-min Rain = 0
KVA1 140607Z 20006KT 03/01 A3018 RMK A01 T00280010  RH  088%=      5-min Rain = 0
KVA1 140608Z 22005KT 03/01 A3018 RMK A01 T00300011  RH  088%=      5-min Rain = 0
KVA1 140609Z 21004KT 03/01 A3018 RMK A01 T00310011  RH  087%=      5-min Rain = 0
KVA1 140610Z 21004KT 03/01 A3018 RMK A01 T00320011  RH  086%=      5-min Rain = 0
KVA1 140611Z 21005KT 03/01 A3018 RMK A01 T00320011  RH  086%=      5-min Rain = 0
KVA1 140612Z 23005KT 03/01 A3018 RMK A01 T00320011  RH  086%=      5-min Rain = 0
KVA1 140613Z 24004KT 03/01 A3018 RMK A01 T00320011  RH  086%=      5-min Rain = 0
KVA1 140614Z 23005KT 03/01 A3018 RMK A01 T00320011  RH  086%=      5-min Rain = 0
KVA1 140615Z 22005KT 03/01 A3018 RMK A01 T00310010  RH  087%=      5-min Rain = 0
KVA1 140616Z 22005KT 03/01 A3018 RMK A01 T00300011  RH  087%=      5-min Rain = 0
KVA1 140617Z 23004KT 03/01 A3018 RMK A01 T00300011  RH  087%=      5-min Rain = 0
KVA1 140618Z 24004KT 03/01 A3018 RMK A01 T00300011  RH  087%=      5-min Rain = 0
KVA1 140619Z 25005KT 03/01 A3018 RMK A01 T00300011  RH  087%=      5-min Rain = 0
KVA1 140620Z 25005KT 03/01 A3018 RMK A01 T00290010  RH  088%=      5-min Rain = 0
KVA1 140621Z 24005KT 03/01 A3018 RMK A01 T00290011  RH  088%=      5-min Rain = 0
KVA1 140622Z 24004KT 03/01 A3018 RMK A01 T00290011  RH  088%=      5-min Rain = 0
KVA1 140623Z 23005KT 03/01 A3018 RMK A01 T00290011  RH  088%=      5-min Rain = 0
KVA1 140624Z 24005KT 03/01 A3018 RMK A01 T00280011  RH  088%=      5-min Rain = 0
KVA1 140625Z 24005KT 03/01 A3018 RMK A01 T00280011  RH  089%=      5-min Rain = 0
KVA1 140626Z 25005KT 03/01 A3018 RMK A01 T00280011  RH  089%=      5-min Rain = 0
KVA1 140627Z 25005KT 03/01 A3018 RMK A01 T00280011  RH  089%=      5-min Rain = 0
KVA1 140628Z 25004KT 03/01 A3018 RMK A01 T00280011  RH  089%=      5-min Rain = 0
KVA1 140629Z 24004KT 03/01 A3018 RMK A01 T00280011  RH  089%=      5-min Rain = 0
KVA1 140630Z 23003KT 03/01 A3018 RMK A01 T00280011  RH  089%=      5-min Rain = 0
KVA1 140631Z 24004KT 03/01 A3018 RMK A01 T00280011  RH  089%=      5-min Rain = 0
KVA1 140632Z 23005KT 03/01 A3018 RMK A01 T00270011  RH  089%=      5-min Rain = 0
KVA1 140633Z 23005KT 03/01 A3018 RMK A01 T00270012  RH  090%=      5-min Rain = 0
KVA1 140634Z 22005KT 03/01 A3018 RMK A01 T00270012  RH  090%=      5-min Rain = 0
KVA1 140635Z 21006KT 03/01 A3018 RMK A01 T00270012  RH  090%=      5-min Rain = 0
KVA1 140636Z 22007KT 03/01 A3018 RMK A01 T00270012  RH  090%=      5-min Rain = 0
KVA1 140637Z 22007KT 03/01 A3018 RMK A01 T00270012  RH  090%=      5-min Rain = 0
KVA1 140638Z 22007KT 03/01 A3018 RMK A01 T00270012  RH  089%=      5-min Rain = 0
KVA1 140639Z 22006KT 03/01 A3018 RMK A01 T00280011  RH  089%=      5-min Rain = 0
KVA1 140640Z 22005KT 03/01 A3018 RMK A01 T00280011  RH  089%=      5-min Rain = 0
KVA1 140641Z 23005KT 03/01 A3018 RMK A01 T00290012  RH  088%=      5-min Rain = 0
KVA1 140642Z 24004KT 03/01 A3019 RMK A01 T00290011  RH  088%=      5-min Rain = 0
KVA1 140643Z 26004KT 03/01 A3019 RMK A01 T00300011  RH  088%=      5-min Rain = 0
KVA1 140644Z 26004KT 03/01 A3019 RMK A01 T00290010  RH  087%=      5-min Rain = 0
KVA1 140645Z 25005KT 03/01 A3019 RMK A01 T00280010  RH  087%=      5-min Rain = 0
KVA1 140646Z 25005KT 03/01 A3018 RMK A01 T00280010  RH  088%=      5-min Rain = 0
KVA1 140647Z 24005KT 03/01 A3018 RMK A01 T00280010  RH  088%=      5-min Rain = 0
KVA1 140648Z 24005KT 03/01 A3018 RMK A01 T00290011  RH  088%=      5-min Rain = 0
KVA1 140649Z 24005KT 03/01 A3018 RMK A01 T00290011  RH  088%=      5-min Rain = 0
KVA1 140650Z 25005KT 03/01 A3018 RMK A01 T00300011  RH  087%=      5-min Rain = 0
KVA1 140651Z 26005KT 03/01 A3018 RMK A01 T00300010  RH  087%=      5-min Rain = 0
KVA1 140652Z 27005KT 03/01 A3018 RMK A01 T00300010  RH  087%=      5-min Rain = 0
KVA1 140653Z 28006KT 03/01 A3018 RMK A01 T00300010  RH  087%=      5-min Rain = 0
KVA1 140654Z 29006KT 03/01 A3018 RMK A01 T00290010  RH  087%=      5-min Rain = 0
KVA1 140655Z 29005KT 03/01 A3018 RMK A01 T00290010  RH  087%=      5-min Rain = 0
KVA1 140656Z 29005KT 03/01 A3018 RMK A01 T00290009  RH  087%=      5-min Rain = 0
KVA1 140657Z 29004KT 03/01 A3018 RMK A01 T00300009  RH  086%=      5-min Rain = 0
KVA1 140658Z 29004KT 03/01 A3018 RMK A01 T00300009  RH  086%=      5-min Rain = 0
KVA1 140659Z 29004KT 03/01 A3018 RMK A01 T00300009  RH  086%=      5-min Rain = 0
KVA1 140700Z 29004KT 03/01 A3018 RMK A01 T00300009  RH  086%=      5-min Rain = 0
KVA1 140701Z 30005KT 03/01 A3018 RMK A01 T00300009  RH  086%=      5-min Rain = 0
KVA1 140702Z 30005KT 03/01 A3018 RMK A01 T00300008  RH  086%=      5-min Rain = 0
KVA1 140703Z 30005KT 03/01 A3018 RMK A01 T00290008  RH  086%=      5-min Rain = 0
KVA1 140704Z 30005KT 03/01 A3018 RMK A01 T00290007  RH  086%=      5-min Rain = 0
KVA1 140705Z 30005KT 03/01 A3018 RMK A01 T00280007  RH  086%=      5-min Rain = 0
KVA1 140706Z 30005KT 03/01 A3018 RMK A01 T00270007  RH  087%=      5-min Rain = 0
KVA1 140707Z 30005KT 03/01 A3018 RMK A01 T00270007  RH  087%=      5-min Rain = 0
KVA1 140708Z 30005KT 03/01 A3018 RMK A01 T00260006  RH  087%=      5-min Rain = 0
KVA1 140709Z 31006KT 03/01 A3018 RMK A01 T00260006  RH  087%=      5-min Rain = 0
KVA1 140710Z 31006KT 03/01 A3018 RMK A01 T00260006  RH  086%=      5-min Rain = 0
KVA1 140711Z 32006KT 03/01 A3018 RMK A01 T00260006  RH  086%=      5-min Rain = 0
KVA1 140712Z 33005KT 03/01 A3018 RMK A01 T00270006  RH  086%=      5-min Rain = 0
KVA1 140713Z 33005KT 03/01 A3018 RMK A01 T00270005  RH  086%=      5-min Rain = 0
KVA1 140714Z 32005KT 03/01 A3018 RMK A01 T00270005  RH  085%=      5-min Rain = 0
KVA1 140715Z 33005KT 03/01 A3018 RMK A01 T00270005  RH  085%=      5-min Rain = 0
KVA1 140716Z 32005KT 03/00 A3018 RMK A01 T00260004  RH  085%=      5-min Rain = 0
KVA1 140717Z 32005KT 03/00 A3018 RMK A01 T00250004  RH  086%=      5-min Rain = 0
KVA1 140718Z 32005KT 03/00 A3018 RMK A01 T00250003  RH  086%=      5-min Rain = 0
KVA1 140719Z 33006KT 02/00 A3018 RMK A01 T00240003  RH  086%=      5-min Rain = 0
KVA1 140720Z 33005KT 02/00 A3018 RMK A01 T00240003  RH  086%=      5-min Rain = 0
KVA1 140721Z 33005KT 02/00 A3018 RMK A01 T00240004  RH  086%=      5-min Rain = 0
KVA1 140722Z 33004KT 02/00 A3018 RMK A01 T00240004  RH  086%=      5-min Rain = 0
KVA1 140723Z 33004KT 02/00 A3018 RMK A01 T00240004  RH  087%=      5-min Rain = 0
KVA1 140724Z 33004KT 02/00 A3018 RMK A01 T00230003  RH  087%=      5-min Rain = 0
KVA1 140725Z 33004KT 02/00 A3018 RMK A01 T00230003  RH  087%=      5-min Rain = 0
KVA1 140726Z 34004KT 02/00 A3018 RMK A01 T00230003  RH  087%=      5-min Rain = 0
KVA1 140727Z 34005KT 02/00 A3018 RMK A01 T00230003  RH  087%=      5-min Rain = 0
KVA1 140728Z 34004KT 02/00 A3018 RMK A01 T00220003  RH  087%=      5-min Rain = 0
KVA1 140729Z 34004KT 02/00 A3018 RMK A01 T00220002  RH  087%=      5-min Rain = 0
KVA1 140730Z 34004KT 02/00 A3018 RMK A01 T00210002  RH  087%=      5-min Rain = 0
KVA1 140731Z 33002KT 02/00 A3018 RMK A01 T00210002  RH  087%=      5-min Rain = 0
KVA1 140732Z 32000KT 02/00 A3018 RMK A01 T00200001  RH  087%=      5-min Rain = 0
KVA1 140733Z 00000KT 02/00 A3018 RMK A01 T00200001  RH  088%=      5-min Rain = 0
KVA1 140734Z 23000KT 02/00 A3018 RMK A01 T00190002  RH  088%=      5-min Rain = 0
KVA1 140735Z 24001KT 02/00 A3018 RMK A01 T00200003  RH  089%=      5-min Rain = 0
KVA1 140736Z 19002KT 02/00 A3018 RMK A01 T00200004  RH  089%=      5-min Rain = 0
KVA1 140737Z 19002KT 02/00 A3018 RMK A01 T00200004  RH  089%=      5-min Rain = 0
KVA1 140738Z 22001KT 02/01 A3018 RMK A01 T00210005  RH  089%=      5-min Rain = 0
KVA1 140739Z 21002KT 02/01 A3018 RMK A01 T00200005  RH  089%=      5-min Rain = 0
KVA1 140740Z 21002KT 02/01 A3018 RMK A01 T00200005  RH  089%=      5-min Rain = 0
KVA1 140741Z 21003KT 02/00 A3019 RMK A01 T00200004  RH  089%=      5-min Rain = 0
KVA1 140742Z 22003KT 02/00 A3019 RMK A01 T00200004  RH  089%=      5-min Rain = 0
KVA1 140743Z 22003KT 02/00 A3019 RMK A01 T00200004  RH  089%=      5-min Rain = 0
KVA1 140744Z 24003KT 02/00 A3019 RMK A01 T00190003  RH  089%=      5-min Rain = 0
KVA1 140745Z 23003KT 02/00 A3019 RMK A01 T00190002  RH  089%=      5-min Rain = 0
KVA1 140746Z 24003KT 02/00 A3019 RMK A01 T00190002  RH  089%=      5-min Rain = 0
KVA1 140747Z 25002KT 02/00 A3019 RMK A01 T00180002  RH  089%=      5-min Rain = 0
KVA1 140748Z 26002KT 02/00 A3019 RMK A01 T00190002  RH  089%=      5-min Rain = 0
KVA1 140749Z 26002KT 02/00 A3019 RMK A01 T00190002  RH  089%=      5-min Rain = 0
KVA1 140750Z 24003KT 02/00 A3019 RMK A01 T00180001  RH  089%=      5-min Rain = 0
KVA1 140751Z 25003KT 02/00 A3019 RMK A01 T00170000  RH  089%=      5-min Rain = 0
KVA1 140752Z 26002KT 02/00 A3019 RMK A01 T001700-0  RH  089%=      5-min Rain = 0
KVA1 140753Z 24003KT 02/00 A3019 RMK A01 T00170000  RH  089%=      5-min Rain = 0
KVA1 140754Z 25002KT 02/00 A3019 RMK A01 T00160000  RH  089%=      5-min Rain = 0
KVA1 140755Z 25003KT 02/00 A3019 RMK A01 T00160000  RH  089%=      5-min Rain = 0
KVA1 140756Z 26002KT 02/00 A3019 RMK A01 T00160000  RH  089%=      5-min Rain = 0
KVA1 140757Z 24003KT 02/00 A3019 RMK A01 T00160000  RH  090%=      5-min Rain = 0
KVA1 140758Z 25003KT 02/00 A3019 RMK A01 T00160001  RH  090%=      5-min Rain = 0
KVA1 140759Z 27002KT 02/00 A3018 RMK A01 T00160001  RH  090%=      5-min Rain = 0
KVA1 140800Z 27003KT 02/00 A3018 RMK A01 T00160001  RH  090%=      5-min Rain = 0
KVA1 140801Z 28003KT 02/00 A3018 RMK A01 T001600-0  RH  089%=      5-min Rain = 0
KVA1 140802Z 28003KT 02/M00 A3018 RMK A01 T00161001  RH  089%=      5-min Rain = 0
KVA1 140803Z 28003KT 02/00 A3018 RMK A01 T001600-0  RH  089%=      5-min Rain = 0
KVA1 140804Z 28003KT 02/00 A3018 RMK A01 T00160000  RH  089%=      5-min Rain = 0
KVA1 140805Z 28003KT 02/00 A3018 RMK A01 T001600-0  RH  089%=      5-min Rain = 0
KVA1 140806Z 29003KT 02/00 A3018 RMK A01 T001600-0  RH  089%=      5-min Rain = 0
KVA1 140807Z 29003KT 02/M00 A3018 RMK A01 T00161001  RH  088%=      5-min Rain = 0
KVA1 140808Z 29003KT 02/M00 A3018 RMK A01 T00161002  RH  088%=      5-min Rain = 0
KVA1 140809Z 29003KT 02/M00 A3018 RMK A01 T00161002  RH  088%=      5-min Rain = 0
KVA1 140810Z 28003KT 02/M00 A3018 RMK A01 T00161002  RH  088%=      5-min Rain = 0
KVA1 140811Z 28003KT 02/M00 A3018 RMK A01 T00161002  RH  088%=      5-min Rain = 0
KVA1 140812Z 28003KT 02/M00 A3018 RMK A01 T00161002  RH  088%=      5-min Rain = 0
KVA1 140813Z 28003KT 02/M00 A3018 RMK A01 T00161001  RH  088%=      5-min Rain = 0
KVA1 140814Z 27002KT 02/00 A3018 RMK A01 T001700-0  RH  088%=      5-min Rain = 0
KVA1 140815Z 25003KT 02/M00 A3018 RMK A01 T00161001  RH  088%=      5-min Rain = 0
KVA1 140816Z 24002KT 02/M00 A3018 RMK A01 T00171002  RH  088%=      5-min Rain = 0
KVA1 140817Z 25002KT 02/M00 A3018 RMK A01 T00171002  RH  088%=      5-min Rain = 0
KVA1 140818Z 27002KT 02/M00 A3018 RMK A01 T00171001  RH  088%=      5-min Rain = 0
KVA1 140819Z 28003KT 02/M00 A3018 RMK A01 T00171001  RH  088%=      5-min Rain = 0
KVA1 140820Z 27003KT 02/M00 A3018 RMK A01 T00161001  RH  088%=      5-min Rain = 0
KVA1 140821Z 27002KT 02/M00 A3018 RMK A01 T00161001  RH  088%=      5-min Rain = 0
KVA1 140822Z 25003KT 02/M00 A3018 RMK A01 T00161001  RH  089%=      5-min Rain = 0
KVA1 140823Z 24004KT 02/M00 A3018 RMK A01 T00161002  RH  088%=      5-min Rain = 0
KVA1 140824Z 24004KT 02/M00 A3018 RMK A01 T00151003  RH  088%=      5-min Rain = 0
KVA1 140825Z 25004KT 01/M00 A3018 RMK A01 T00141003  RH  089%=      5-min Rain = 0
KVA1 140826Z 24003KT 01/M00 A3018 RMK A01 T00141002  RH  089%=      5-min Rain = 0
KVA1 140827Z 23003KT 01/M00 A3018 RMK A01 T00141002  RH  089%=      5-min Rain = 0
KVA1 140828Z 24003KT 02/M00 A3019 RMK A01 T00151001  RH  089%=      5-min Rain = 0
KVA1 140829Z 23003KT 02/M00 A3019 RMK A01 T00161001  RH  089%=      5-min Rain = 0
KVA1 140830Z 23003KT 02/00 A3019 RMK A01 T001700-0  RH  088%=      5-min Rain = 0
KVA1 140831Z 25003KT 02/00 A3019 RMK A01 T00200001  RH  087%=      5-min Rain = 0
KVA1 140832Z 25003KT 02/M00 A3019 RMK A01 T00201001  RH  086%=      5-min Rain = 0
KVA1 140833Z 25004KT 02/M00 A3019 RMK A01 T00201001  RH  086%=      5-min Rain = 0
KVA1 140834Z 23004KT 02/M00 A3019 RMK A01 T00191002  RH  086%=      5-min Rain = 0
KVA1 140835Z 23004KT 02/M00 A3019 RMK A01 T00191002  RH  086%=      5-min Rain = 0
KVA1 140836Z 22004KT 02/M00 A3019 RMK A01 T00211001  RH  085%=      5-min Rain = 0
KVA1 140837Z 22004KT 02/M00 A3019 RMK A01 T00221001  RH  084%=      5-min Rain = 0
KVA1 140838Z 23004KT 02/M00 A3019 RMK A01 T00231002  RH  084%=      5-min Rain = 0
KVA1 140839Z 23004KT 02/M00 A3019 RMK A01 T00231002  RH  084%=      5-min Rain = 0
KVA1 140840Z 26004KT 02/M00 A3019 RMK A01 T00241002  RH  083%=      5-min Rain = 0
KVA1 140841Z 25005KT 02/M00 A3019 RMK A01 T00241003  RH  082%=      5-min Rain = 0
KVA1 140842Z 23004KT 02/M00 A3019 RMK A01 T00241003  RH  083%=      5-min Rain = 0
KVA1 140843Z 24004KT 02/M00 A3019 RMK A01 T00231003  RH  083%=      5-min Rain = 0
KVA1 140844Z 22004KT 02/M00 A3019 RMK A01 T00231003  RH  083%=      5-min Rain = 0
KVA1 140845Z 22004KT 02/M00 A3019 RMK A01 T00231002  RH  083%=      5-min Rain = 0
KVA1 140846Z 24004KT 02/M00 A3019 RMK A01 T00231002  RH  083%=      5-min Rain = 0
KVA1 140847Z 23004KT 02/M00 A3019 RMK A01 T00231003  RH  083%=      5-min Rain = 0
KVA1 140848Z 24004KT 03/M00 A3019 RMK A01 T00261001  RH  082%=      5-min Rain = 0
KVA1 140849Z 26005KT 03/M00 A3019 RMK A01 T00291002  RH  080%=      5-min Rain = 0
KVA1 140850Z 25005KT 03/M00 A3019 RMK A01 T00301002  RH  079%=      5-min Rain = 0
KVA1 140851Z 24005KT 03/M00 A3019 RMK A01 T00301003  RH  079%=      5-min Rain = 0
KVA1 140852Z 25004KT 03/M00 A3019 RMK A01 T00281004  RH  079%=      5-min Rain = 0
KVA1 140853Z 23004KT 03/M01 A3019 RMK A01 T00261005  RH  080%=      5-min Rain = 0
KVA1 140854Z 25004KT 03/M01 A3019 RMK A01 T00251005  RH  081%=      5-min Rain = 0
KVA1 140855Z 27005KT 02/M01 A3019 RMK A01 T00241005  RH  082%=      5-min Rain = 0
KVA1 140856Z 26005KT 02/M00 A3019 RMK A01 T00231004  RH  082%=      5-min Rain = 0
KVA1 140857Z 25006KT 02/M00 A3019 RMK A01 T00221004  RH  083%=      5-min Rain = 0
KVA1 140858Z 25006KT 02/M00 A3019 RMK A01 T00211004  RH  083%=      5-min Rain = 0
KVA1 140859Z 25006KT 02/M00 A3019 RMK A01 T00201004  RH  084%=      5-min Rain = 0
KVA1 140900Z 24006KT 02/M00 A3019 RMK A01 T00191004  RH  084%=      5-min Rain = 0
KVA1 140901Z 24006KT 02/M00 A3019 RMK A01 T00191004  RH  085%=      5-min Rain = 0
KVA1 140902Z 25006KT 02/M00 A3019 RMK A01 T00181004  RH  085%=      5-min Rain = 0
KVA1 140903Z 25006KT 02/M00 A3019 RMK A01 T00181004  RH  086%=      5-min Rain = 0
KVA1 140904Z 24006KT 02/M00 A3019 RMK A01 T00171004  RH  086%=      5-min Rain = 0
KVA1 140905Z 25006KT 02/M00 A3019 RMK A01 T00171004  RH  086%=      5-min Rain = 0
KVA1 140906Z 25006KT 02/M00 A3019 RMK A01 T00181003  RH  086%=      5-min Rain = 0
KVA1 140907Z 25006KT 02/M00 A3019 RMK A01 T00181003  RH  086%=      5-min Rain = 0
KVA1 140908Z 25006KT 02/M00 A3019 RMK A01 T00191003  RH  085%=      5-min Rain = 0
KVA1 140909Z 25006KT 02/M00 A3019 RMK A01 T00191003  RH  085%=      5-min Rain = 0
KVA1 140910Z 25006KT 02/M00 A3019 RMK A01 T00201003  RH  085%=      5-min Rain = 0
KVA1 140911Z 24006KT 02/M00 A3019 RMK A01 T00201003  RH  084%=      5-min Rain = 0
KVA1 140912Z 24006KT 02/M00 A3019 RMK A01 T00211003  RH  084%=      5-min Rain = 0
KVA1 140913Z 24006KT 02/M00 A3019 RMK A01 T00221003  RH  084%=      5-min Rain = 0
KVA1 140914Z 24006KT 02/M00 A3019 RMK A01 T00221003  RH  083%=      5-min Rain = 0
KVA1 140915Z 24006KT 02/M00 A3019 RMK A01 T00231003  RH  083%=      5-min Rain = 0
KVA1 140916Z 24006KT 02/M00 A3019 RMK A01 T00241003  RH  083%=      5-min Rain = 0
KVA1 140917Z 25006KT 02/M00 A3019 RMK A01 T00241003  RH  082%=      5-min Rain = 0
KVA1 140918Z 24006KT 02/M00 A3019 RMK A01 T00241003  RH  082%=      5-min Rain = 0
KVA1 140919Z 24006KT 02/M00 A3019 RMK A01 T00241003  RH  082%=      5-min Rain = 0
KVA1 140920Z 24006KT 02/M00 A3019 RMK A01 T00241003  RH  082%=      5-min Rain = 0
KVA1 140921Z 24006KT 02/M00 A3019 RMK A01 T00241004  RH  082%=      5-min Rain = 0
KVA1 140922Z 24006KT 02/M00 A3019 RMK A01 T00241004  RH  082%=      5-min Rain = 0
KVA1 140923Z 24006KT 02/M00 A3019 RMK A01 T00241004  RH  082%=      5-min Rain = 0
KVA1 140924Z 24006KT 03/M00 A3019 RMK A01 T00251003  RH  082%=      5-min Rain = 0
KVA1 140925Z 24006KT 02/M00 A3019 RMK A01 T00241003  RH  082%=      5-min Rain = 0
KVA1 140926Z 24006KT 02/M00 A3019 RMK A01 T00241003  RH  082%=      5-min Rain = 0
KVA1 140927Z 24006KT 02/M00 A3019 RMK A01 T00241003  RH  082%=      5-min Rain = 0
KVA1 140928Z 24006KT 02/M00 A3019 RMK A01 T00241004  RH  082%=      5-min Rain = 0
KVA1 140929Z 24006KT 02/M00 A3019 RMK A01 T00231004  RH  082%=      5-min Rain = 0
KVA1 140930Z 24006KT 02/M00 A3019 RMK A01 T00231004  RH  083%=      5-min Rain = 0
KVA1 140931Z 24006KT 02/M00 A3019 RMK A01 T00231004  RH  083%=      5-min Rain = 0
KVA1 140932Z 24006KT 02/M00 A3019 RMK A01 T00231004  RH  083%=      5-min Rain = 0
KVA1 140933Z 24006KT 02/M00 A3019 RMK A01 T00241003  RH  082%=      5-min Rain = 0
KVA1 140934Z 24005KT 02/M00 A3019 RMK A01 T00241003  RH  082%=      5-min Rain = 0
KVA1 140935Z 24005KT 02/M00 A3019 RMK A01 T00241004  RH  082%=      5-min Rain = 0
KVA1 140936Z 24005KT 02/M00 A3019 RMK A01 T00241004  RH  082%=      5-min Rain = 0
KVA1 140937Z 24005KT 02/M00 A3019 RMK A01 T00241004  RH  082%=      5-min Rain = 0
KVA1 140938Z 24005KT 02/M00 A3019 RMK A01 T00241004  RH  082%=      5-min Rain = 0
KVA1 140939Z 24005KT 02/M01 A3019 RMK A01 T00241005  RH  082%=      5-min Rain = 0
KVA1 140940Z 24005KT 02/M01 A3019 RMK A01 T00231005  RH  082%=      5-min Rain = 0
KVA1 140941Z 25005KT 02/M01 A3019 RMK A01 T00221005  RH  082%=      5-min Rain = 0
KVA1 140942Z 24005KT 02/M01 A3019 RMK A01 T00221005  RH  082%=      5-min Rain = 0
KVA1 140943Z 24005KT 02/M01 A3019 RMK A01 T00211005  RH  082%=      5-min Rain = 0
KVA1 140944Z 25005KT 02/M01 A3019 RMK A01 T00211005  RH  083%=      5-min Rain = 0
KVA1 140945Z 25005KT 02/M01 A3019 RMK A01 T00211005  RH  083%=      5-min Rain = 0
KVA1 140946Z 25005KT 02/M01 A3019 RMK A01 T00211005  RH  083%=      5-min Rain = 0
KVA1 140947Z 25005KT 02/M01 A3018 RMK A01 T00201006  RH  083%=      5-min Rain = 0
KVA1 140948Z 25005KT 02/M01 A3018 RMK A01 T00201006  RH  083%=      5-min Rain = 0
KVA1 140949Z 25005KT 02/M01 A3018 RMK A01 T00191005  RH  084%=      5-min Rain = 0
KVA1 140950Z 25005KT 02/M01 A3018 RMK A01 T00191005  RH  084%=      5-min Rain = 0
KVA1 140951Z 24005KT 02/M01 A3018 RMK A01 T00181006  RH  084%=      5-min Rain = 0
KVA1 140952Z 24005KT 02/M01 A3018 RMK A01 T00181006  RH  084%=      5-min Rain = 0
KVA1 140953Z 25005KT 02/M01 A3018 RMK A01 T00171006  RH  084%=      5-min Rain = 0
KVA1 140954Z 25006KT 02/M01 A3018 RMK A01 T00171006  RH  085%=      5-min Rain = 0
KVA1 140955Z 25006KT 02/M01 A3018 RMK A01 T00161007  RH  085%=      5-min Rain = 0
KVA1 140956Z 25005KT 02/M01 A3018 RMK A01 T00151007  RH  085%=      5-min Rain = 0
KVA1 140957Z 25005KT 02/M01 A3018 RMK A01 T00151007  RH  085%=      5-min Rain = 0
KVA1 140958Z 25005KT 01/M01 A3018 RMK A01 T00141008  RH  086%=      5-min Rain = 0
KVA1 140959Z 25005KT 01/M01 A3018 RMK A01 T00131008  RH  086%=      5-min Rain = 0
KVA1 141000Z 25005KT 01/M01 A3018 RMK A01 T00121008  RH  086%=      5-min Rain = 0
KVA1 141001Z 25005KT 01/M01 A3018 RMK A01 T00121008  RH  087%=      5-min Rain = 0
KVA1 141002Z 25005KT 01/M01 A3018 RMK A01 T00121008  RH  087%=      5-min Rain = 0
KVA1 141003Z 25005KT 01/M01 A3018 RMK A01 T00111008  RH  087%=      5-min Rain = 0
KVA1 141004Z 25006KT 01/M01 A3018 RMK A01 T00111008  RH  087%=      5-min Rain = 0
KVA1 141005Z 25006KT 01/M01 A3018 RMK A01 T00111008  RH  087%=      5-min Rain = 0
KVA1 141006Z 25006KT 01/M01 A3018 RMK A01 T00111008  RH  088%=      5-min Rain = 0
KVA1 141007Z 25006KT 01/M01 A3018 RMK A01 T00111008  RH  087%=      5-min Rain = 0
KVA1 141008Z 25006KT 01/M01 A3018 RMK A01 T00121007  RH  087%=      5-min Rain = 0
KVA1 141009Z 25007KT 01/M01 A3018 RMK A01 T00121007  RH  087%=      5-min Rain = 0
KVA1 141010Z 25007KT 01/M01 A3018 RMK A01 T00131007  RH  087%=      5-min Rain = 0
KVA1 141011Z 25007KT 01/M01 A3018 RMK A01 T00131007  RH  086%=      5-min Rain = 0
KVA1 141012Z 25006KT 01/M01 A3018 RMK A01 T00131008  RH  086%=      5-min Rain = 0
KVA1 141013Z 24006KT 01/M01 A3018 RMK A01 T00141007  RH  086%=      5-min Rain = 0
KVA1 141014Z 25005KT 01/M01 A3018 RMK A01 T00141007  RH  086%=      5-min Rain = 0
KVA1 141015Z 25005KT 01/M01 A3018 RMK A01 T00141007  RH  086%=      5-min Rain = 0
KVA1 141016Z 25006KT 02/M01 A3018 RMK A01 T00151007  RH  086%=      5-min Rain = 0
KVA1 141017Z 25005KT 02/M01 A3018 RMK A01 T00151007  RH  085%=      5-min Rain = 0
KVA1 141018Z 25005KT 02/M01 A3018 RMK A01 T00151007  RH  085%=      5-min Rain = 0
KVA1 141019Z 25006KT 02/M01 A3018 RMK A01 T00151007  RH  085%=      5-min Rain = 0
KVA1 141020Z 24005KT 02/M01 A3018 RMK A01 T00151007  RH  085%=      5-min Rain = 0
KVA1 141021Z 24005KT 02/M01 A3018 RMK A01 T00151007  RH  085%=      5-min Rain = 0
KVA1 141022Z 24005KT 02/M01 A3018 RMK A01 T00151007  RH  085%=      5-min Rain = 0
KVA1 141023Z 24005KT 02/M01 A3018 RMK A01 T00151007  RH  085%=      5-min Rain = 0
KVA1 141024Z 25005KT 02/M01 A3018 RMK A01 T00151007  RH  085%=      5-min Rain = 0
KVA1 141025Z 25005KT 02/M01 A3018 RMK A01 T00151007  RH  085%=      5-min Rain = 0
KVA1 141026Z 24005KT 02/M01 A3018 RMK A01 T00151008  RH  085%=      5-min Rain = 0
KVA1 141027Z 25005KT 01/M01 A3018 RMK A01 T00141008  RH  085%=      5-min Rain = 0
KVA1 141028Z 24005KT 01/M01 A3018 RMK A01 T00141008  RH  085%=      5-min Rain = 0
KVA1 141029Z 24005KT 02/M01 A3018 RMK A01 T00151007  RH  085%=      5-min Rain = 0
KVA1 141030Z 24005KT 01/M01 A3018 RMK A01 T00141008  RH  085%=      5-min Rain = 0
KVA1 141031Z 23005KT 01/M01 A3018 RMK A01 T00141008  RH  085%=      5-min Rain = 0
KVA1 141032Z 24005KT 01/M01 A3019 RMK A01 T00141008  RH  086%=      5-min Rain = 0
KVA1 141033Z 23005KT 01/M01 A3019 RMK A01 T00141008  RH  086%=      5-min Rain = 0
KVA1 141034Z 23006KT 01/M01 A3019 RMK A01 T00131008  RH  086%=      5-min Rain = 0
KVA1 141035Z 23005KT 01/M01 A3019 RMK A01 T00131008  RH  086%=      5-min Rain = 0
KVA1 141036Z 24005KT 01/M01 A3019 RMK A01 T00121008  RH  086%=      5-min Rain = 0
KVA1 141037Z 24005KT 01/M01 A3019 RMK A01 T00121009  RH  086%=      5-min Rain = 0
KVA1 141038Z 23005KT 01/M01 A3019 RMK A01 T00121009  RH  086%=      5-min Rain = 0
KVA1 141039Z 23005KT 01/M01 A3019 RMK A01 T00111009  RH  086%=      5-min Rain = 0
KVA1 141040Z 23005KT 01/M01 A3019 RMK A01 T00111009  RH  087%=      5-min Rain = 0
KVA1 141041Z 23005KT 01/M01 A3019 RMK A01 T00111009  RH  087%=      5-min Rain = 0
KVA1 141042Z 23004KT 01/M01 A3019 RMK A01 T00111009  RH  087%=      5-min Rain = 0
KVA1 141043Z 23004KT 01/M01 A3019 RMK A01 T00111009  RH  087%=      5-min Rain = 0
KVA1 141044Z 23004KT 01/M01 A3019 RMK A01 T00111009  RH  087%=      5-min Rain = 0
KVA1 141045Z 23003KT 01/M01 A3019 RMK A01 T00111009  RH  087%=      5-min Rain = 0
KVA1 141046Z 24003KT 01/M01 A3019 RMK A01 T00111009  RH  087%=      5-min Rain = 0
KVA1 141047Z 24003KT 01/M01 A3019 RMK A01 T00101010  RH  087%=      5-min Rain = 0
KVA1 141048Z 24003KT 01/M01 A3019 RMK A01 T00101010  RH  087%=      5-min Rain = 0
KVA1 141049Z 24002KT 01/M01 A3019 RMK A01 T00091010  RH  087%=      5-min Rain = 0
KVA1 141050Z 24003KT 01/M01 A3019 RMK A01 T00091010  RH  087%=      5-min Rain = 0
KVA1 141051Z 25003KT 01/M01 A3019 RMK A01 T00091010  RH  087%=      5-min Rain = 0
KVA1 141052Z 25003KT 01/M01 A3019 RMK A01 T00081011  RH  087%=      5-min Rain = 0
KVA1 141053Z 25003KT 01/M01 A3019 RMK A01 T00071012  RH  087%=      5-min Rain = 0
KVA1 141054Z 25004KT 01/M01 A3019 RMK A01 T00061013  RH  087%=      5-min Rain = 0
KVA1 141055Z 25004KT 01/M01 A3019 RMK A01 T00061012  RH  088%=      5-min Rain = 0
KVA1 141056Z 24004KT 01/M01 A3019 RMK A01 T00051012  RH  088%=      5-min Rain = 0
KVA1 141057Z 24004KT 01/M01 A3019 RMK A01 T00051012  RH  088%=      5-min Rain = 0
KVA1 141058Z 23004KT 01/M01 A3019 RMK A01 T00051012  RH  088%=      5-min Rain = 0
KVA1 141059Z 22003KT 00/M01 A3019 RMK A01 T00041012  RH  089%=      5-min Rain = 0
KVA1 141100Z 22003KT 00/M01 A3019 RMK A01 T00041013  RH  089%=      5-min Rain = 0
KVA1 141101Z 23003KT 00/M01 A3019 RMK A01 T00041012  RH  089%=      5-min Rain = 0
KVA1 141102Z 24003KT 00/M01 A3019 RMK A01 T00021013  RH  089%=      5-min Rain = 0
KVA1 141103Z 24003KT 00/M01 A3019 RMK A01 T00021014  RH  089%=      5-min Rain = 0
KVA1 141104Z 25003KT 00/M01 A3019 RMK A01 T00011014  RH  090%=      5-min Rain = 0
KVA1 141105Z 25003KT 00/M01 A3019 RMK A01 T00011014  RH  090%=      5-min Rain = 0
KVA1 141106Z 26003KT 00/01 A3019 RMK A01 T00000-14  RH  090%=      5-min Rain = 0
KVA1 141107Z 26003KT 00/01 A3019 RMK A01 T00000-13  RH  091%=      5-min Rain = 0
KVA1 141108Z 26002KT 00/01 A3019 RMK A01 T00000-13  RH  091%=      5-min Rain = 0
KVA1 141109Z 26003KT 00/01 A3019 RMK A01 T00000-13  RH  091%=      5-min Rain = 0
KVA1 141110Z 26003KT 00/01 A3019 RMK A01 T00000-13  RH  091%=      5-min Rain = 0
KVA1 141111Z 27003KT 00/01 A3019 RMK A01 T00000-12  RH  091%=      5-min Rain = 0
KVA1 141112Z 27003KT 00/01 A3019 RMK A01 T00000-12  RH  091%=      5-min Rain = 0
KVA1 141113Z 27003KT 00/01 A3019 RMK A01 T00000-12  RH  091%=      5-min Rain = 0
KVA1 141114Z 27004KT 00/01 A3019 RMK A01 T00000-12  RH  091%=      5-min Rain = 0
KVA1 141115Z 27003KT 00/01 A3019 RMK A01 T00000-13  RH  091%=      5-min Rain = 0
KVA1 141116Z 27003KT 00/01 A3019 RMK A01 T00000-12  RH  091%=      5-min Rain = 0
KVA1 141117Z 27003KT 00/01 A3019 RMK A01 T00000-13  RH  091%=      5-min Rain = 0
KVA1 141118Z 27003KT 00/01 A3019 RMK A01 T00-00-13  RH  091%=      5-min Rain = 0
KVA1 141119Z 28003KT 00/01 A3019 RMK A01 T00-00-13  RH  091%=      5-min Rain = 0
KVA1 141120Z 28004KT 00/01 A3019 RMK A01 T00000-12  RH  091%=      5-min Rain = 0
KVA1 141121Z 28004KT 00/M01 A3019 RMK A01 T00011012  RH  091%=      5-min Rain = 0
KVA1 141122Z 29004KT 00/M01 A3019 RMK A01 T00011011  RH  091%=      5-min Rain = 0
KVA1 141123Z 29004KT 00/M01 A3019 RMK A01 T00021011  RH  091%=      5-min Rain = 0
KVA1 141124Z 29004KT 00/M01 A3019 RMK A01 T00021011  RH  091%=      5-min Rain = 0
KVA1 141125Z 29004KT 00/M01 A3019 RMK A01 T00021012  RH  091%=      5-min Rain = 0
KVA1 141126Z 29004KT 00/M01 A3019 RMK A01 T00021012  RH  090%=      5-min Rain = 0
KVA1 141127Z 29004KT 00/M01 A3019 RMK A01 T00021012  RH  090%=      5-min Rain = 0
KVA1 141128Z 29003KT 00/M01 A3019 RMK A01 T00021012  RH  090%=      5-min Rain = 0
KVA1 141129Z 29003KT 00/M01 A3019 RMK A01 T00031012  RH  090%=      5-min Rain = 0
KVA1 141130Z 28004KT 00/M01 A3019 RMK A01 T00031012  RH  090%=      5-min Rain = 0
KVA1 141131Z 28004KT 00/M01 A3019 RMK A01 T00031012  RH  090%=      5-min Rain = 0
KVA1 141132Z 27004KT 00/M01 A3019 RMK A01 T00031012  RH  090%=      5-min Rain = 0
KVA1 141133Z 27004KT 00/M01 A3019 RMK A01 T00031012  RH  090%=      5-min Rain = 0
KVA1 141134Z 27004KT 00/M01 A3019 RMK A01 T00021013  RH  090%=      5-min Rain = 0
KVA1 141135Z 27003KT 00/M01 A3019 RMK A01 T00021013  RH  090%=      5-min Rain = 0
KVA1 141136Z 28004KT 00/M01 A3019 RMK A01 T00021013  RH  090%=      5-min Rain = 0
KVA1 141137Z 28003KT 00/M01 A3019 RMK A01 T00011013  RH  090%=      5-min Rain = 0
KVA1 141138Z 27003KT 00/M01 A3019 RMK A01 T00011013  RH  090%=      5-min Rain = 0
KVA1 141139Z 27003KT 00/01 A3019 RMK A01 T00000-14  RH  090%=      5-min Rain = 0
KVA1 141140Z 28003KT 00/01 A3019 RMK A01 T00-00-14  RH  090%=      5-min Rain = 0
KVA1 141141Z 27003KT 00/01 A3019 RMK A01 T00-00-14  RH  090%=      5-min Rain = 0
KVA1 141142Z 27003KT M00/M02 A3019 RMK A01 T10011015  RH  091%=      5-min Rain = 0
KVA1 141143Z 28003KT M00/M01 A3019 RMK A01 T10011014  RH  091%=      5-min Rain = 0
KVA1 141144Z 28003KT M00/M01 A3019 RMK A01 T10011014  RH  091%=      5-min Rain = 0
KVA1 141145Z 28003KT M00/M01 A3019 RMK A01 T10011014  RH  091%=      5-min Rain = 0
KVA1 141146Z 28003KT M00/M01 A3019 RMK A01 T10011014  RH  091%=      5-min Rain = 0
KVA1 141147Z 28003KT M00/M01 A3019 RMK A01 T10011013  RH  091%=      5-min Rain = 0
KVA1 141148Z 28003KT M00/M01 A3019 RMK A01 T10021014  RH  091%=      5-min Rain = 0
KVA1 141149Z 28003KT M00/M01 A3019 RMK A01 T10021014  RH  091%=      5-min Rain = 0
KVA1 141150Z 28003KT M00/M02 A3019 RMK A01 T10021015  RH  091%=      5-min Rain = 0
KVA1 141151Z 27003KT M00/M02 A3019 RMK A01 T10031015  RH  091%=      5-min Rain = 0
KVA1 141152Z 27003KT M00/M02 A3019 RMK A01 T10031015  RH  091%=      5-min Rain = 0
KVA1 141153Z 27003KT M00/M02 A3019 RMK A01 T10021015  RH  091%=      5-min Rain = 0
KVA1 141154Z 28003KT M00/M02 A3019 RMK A01 T10031015  RH  091%=      5-min Rain = 0
KVA1 141155Z 28003KT M00/M02 A3019 RMK A01 T10031015  RH  092%=      5-min Rain = 0
KVA1 141156Z 29003KT M00/M02 A3019 RMK A01 T10031015  RH  092%=      5-min Rain = 0
KVA1 141157Z 29003KT M00/M02 A3019 RMK A01 T10031015  RH  092%=      5-min Rain = 0
KVA1 141158Z 29003KT M00/M01 A3019 RMK A01 T10031014  RH  092%=      5-min Rain = 0
KVA1 141159Z 29003KT M00/M02 A3019 RMK A01 T10031015  RH  092%=      5-min Rain = 0
KVA1 141200Z 28003KT M00/M02 A3019 RMK A01 T10031015  RH  092%=      5-min Rain = 0
KVA1 141201Z 28003KT M00/M02 A3019 RMK A01 T10041015  RH  092%=      5-min Rain = 0
KVA1 141202Z 34002KT M00/M02 A302 RMK A01 T10041016  RH  092%=      5-min Rain = 0
KVA1 141203Z 03003KT M01/M02 A302 RMK A01 T10051016  RH  092%=      5-min Rain = 0
KVA1 141204Z 35002KT M01/M02 A302 RMK A01 T10051015  RH  093%=      5-min Rain = 0
KVA1 141205Z 32002KT M01/M02 A302 RMK A01 T10051015  RH  093%=      5-min Rain = 0
KVA1 141206Z 34002KT M00/M01 A302 RMK A01 T10041014  RH  093%=      5-min Rain = 0
KVA1 141207Z 00003KT M00/M01 A302 RMK A01 T10041013  RH  093%=      5-min Rain = 0
KVA1 141208Z 36003KT M00/M01 A302 RMK A01 T10031013  RH  093%=      5-min Rain = 0
KVA1 141209Z 36003KT M00/M01 A302 RMK A01 T10041014  RH  093%=      5-min Rain = 0
KVA1 141210Z 00003KT M00/M01 A302 RMK A01 T10041014  RH  093%=      5-min Rain = 0
KVA1 141211Z 00003KT M00/M01 A302 RMK A01 T10031013  RH  093%=      5-min Rain = 0
KVA1 141212Z 36003KT M00/M01 A302 RMK A01 T10031013  RH  093%=      5-min Rain = 0
KVA1 141213Z 34003KT M00/M01 A302 RMK A01 T10031013  RH  093%=      5-min Rain = 0
KVA1 141214Z 34002KT M00/M01 A302 RMK A01 T10041013  RH  093%=      5-min Rain = 0
KVA1 141215Z 34002KT M00/M01 A302 RMK A01 T10041014  RH  093%=      5-min Rain = 0
KVA1 141216Z 33002KT M00/M01 A302 RMK A01 T10041014  RH  093%=      5-min Rain = 0
KVA1 141217Z 33002KT M01/M02 A302 RMK A01 T10051015  RH  093%=      5-min Rain = 0
KVA1 141218Z 32002KT M01/M02 A302 RMK A01 T10061016  RH  093%=      5-min Rain = 0
KVA1 141219Z 31002KT M01/M02 A302 RMK A01 T10061017  RH  093%=      5-min Rain = 0
KVA1 141220Z 31002KT M01/M02 A302 RMK A01 T10071017  RH  093%=      5-min Rain = 0
KVA1 141221Z 30003KT M01/M02 A302 RMK A01 T10071016  RH  093%=      5-min Rain = 0
KVA1 141222Z 30003KT M01/M02 A302 RMK A01 T10061016  RH  093%=      5-min Rain = 0
KVA1 141223Z 29003KT M01/M02 A302 RMK A01 T10061016  RH  093%=      5-min Rain = 0
KVA1 141224Z 29003KT M01/M02 A302 RMK A01 T10061016  RH  093%=      5-min Rain = 0
KVA1 141225Z 28003KT M01/M02 A302 RMK A01 T10061016  RH  093%=      5-min Rain = 0
KVA1 141226Z 27004KT M01/M02 A302 RMK A01 T10061016  RH  093%=      5-min Rain = 0
KVA1 141227Z 27005KT M01/M02 A302 RMK A01 T10061016  RH  093%=      5-min Rain = 0
KVA1 141228Z 26005KT M01/M02 A302 RMK A01 T10061016  RH  093%=      5-min Rain = 0
KVA1 141229Z 26006KT M01/M02 A302 RMK A01 T10061016  RH  093%=      5-min Rain = 0
KVA1 141230Z 26006KT M01/M02 A302 RMK A01 T10061017  RH  092%=      5-min Rain = 0
KVA1 141231Z 25006KT M01/M02 A302 RMK A01 T10061017  RH  092%=      5-min Rain = 0
KVA1 141232Z 25006KT M01/M02 A302 RMK A01 T10071018  RH  092%=      5-min Rain = 0
KVA1 141233Z 25007KT M01/M02 A302 RMK A01 T10071018  RH  093%=      5-min Rain = 0
KVA1 141234Z 25007KT M01/M02 A302 RMK A01 T10071017  RH  093%=      5-min Rain = 0
KVA1 141235Z 25006KT M01/M02 A302 RMK A01 T10061016  RH  093%=      5-min Rain = 0
KVA1 141236Z 25006KT M01/M02 A302 RMK A01 T10051015  RH  093%=      5-min Rain = 0
KVA1 141237Z 25006KT M00/M01 A302 RMK A01 T10041014  RH  093%=      5-min Rain = 0
KVA1 141238Z 25007KT M00/M01 A302 RMK A01 T10031013  RH  093%=      5-min Rain = 0
KVA1 141239Z 25006KT M00/M01 A302 RMK A01 T10021012  RH  093%=      5-min Rain = 0
KVA1 141240Z 25006KT 00/01 A302 RMK A01 T00-00-11  RH  093%=      5-min Rain = 0
KVA1 141241Z 25006KT 00/M01 A302 RMK A01 T00011010  RH  092%=      5-min Rain = 0
KVA1 141242Z 25006KT 00/M01 A302 RMK A01 T00021010  RH  092%=      5-min Rain = 0
KVA1 141243Z 25006KT 00/M01 A302 RMK A01 T00031010  RH  091%=      5-min Rain = 0
KVA1 141244Z 25006KT 00/M01 A302 RMK A01 T00041009  RH  091%=      5-min Rain = 0
KVA1 141245Z 25006KT 01/M01 A302 RMK A01 T00061009  RH  090%=      5-min Rain = 0
KVA1 141246Z 25006KT 01/M01 A302 RMK A01 T00061009  RH  089%=      5-min Rain = 0
KVA1 141247Z 26005KT 01/M01 A302 RMK A01 T00061010  RH  089%=      5-min Rain = 0
KVA1 141248Z 26005KT 01/M01 A302 RMK A01 T00061011  RH  088%=      5-min Rain = 0
KVA1 141249Z 26005KT 01/M01 A302 RMK A01 T00061011  RH  088%=      5-min Rain = 0
KVA1 141250Z 26005KT 01/M01 A302 RMK A01 T00061012  RH  088%=      5-min Rain = 0
KVA1 141251Z 27005KT 01/M01 A302 RMK A01 T00051012  RH  088%=      5-min Rain = 0
KVA1 141252Z 27005KT 00/M01 A302 RMK A01 T00041013  RH  088%=      5-min Rain = 0
KVA1 141253Z 27005KT 00/M01 A302 RMK A01 T00031014  RH  088%=      5-min Rain = 0
KVA1 141254Z 26006KT 00/M01 A302 RMK A01 T00021014  RH  089%=      5-min Rain = 0
KVA1 141255Z 27006KT 00/M01 A302 RMK A01 T00021014  RH  089%=      5-min Rain = 0
KVA1 141256Z 27006KT 00/M01 A302 RMK A01 T00011014  RH  089%=      5-min Rain = 0
KVA1 141257Z 27006KT 00/M01 A302 RMK A01 T00011014  RH  090%=      5-min Rain = 0
KVA1 141258Z 26006KT 00/M01 A302 RMK A01 T00011014  RH  090%=      5-min Rain = 0
KVA1 141259Z 26007KT 00/01 A302 RMK A01 T00000-14  RH  090%=      5-min Rain = 0
KVA1 141300Z 26007KT 00/01 A302 RMK A01 T00000-14  RH  090%=      5-min Rain = 0
KVA1 141301Z 26007KT 00/01 A302 RMK A01 T00000-14  RH  090%=      5-min Rain = 0
KVA1 141302Z 26006KT 00/01 A302 RMK A01 T00000-14  RH  090%=      5-min Rain = 0
KVA1 141303Z 26006KT 00/01 A302 RMK A01 T00000-14  RH  090%=      5-min Rain = 0
KVA1 141304Z 26006KT 00/01 A302 RMK A01 T00000-14  RH  090%=      5-min Rain = 0
KVA1 141305Z 26006KT 00/01 A3021 RMK A01 T00000-14  RH  090%=      5-min Rain = 0
KVA1 141306Z 26005KT 00/01 A3021 RMK A01 T00000-14  RH  090%=      5-min Rain = 0
KVA1 141307Z 26005KT 00/01 A3021 RMK A01 T00000-14  RH  090%=      5-min Rain = 0
KVA1 141308Z 26004KT 00/01 A3021 RMK A01 T00000-14  RH  090%=      5-min Rain = 0
KVA1 141309Z 26004KT 00/01 A3021 RMK A01 T00000-14  RH  090%=      5-min Rain = 0
KVA1 141310Z 27003KT 00/01 A3021 RMK A01 T00000-14  RH  090%=      5-min Rain = 0
KVA1 141311Z 27002KT 00/01 A3021 RMK A01 T00000-14  RH  090%=      5-min Rain = 0
KVA1 141312Z 13000KT 00/01 A3021 RMK A01 T00-00-14  RH  090%=      5-min Rain = 0
KVA1 141313Z 10002KT M00/M02 A3021 RMK A01 T10011015  RH  090%=      5-min Rain = 0
KVA1 141314Z 11001KT M00/M02 A3021 RMK A01 T10021016  RH  091%=      5-min Rain = 0
KVA1 141315Z 11000KT M00/M02 A3021 RMK A01 T10031016  RH  091%=      5-min Rain = 0
KVA1 141316Z 12001KT M00/M02 A3021 RMK A01 T10031015  RH  091%=      5-min Rain = 0
KVA1 141317Z 13002KT M00/M02 A3021 RMK A01 T10041016  RH  091%=      5-min Rain = 0
KVA1 141318Z 18001KT M00/M02 A3021 RMK A01 T10041016  RH  092%=      5-min Rain = 0
KVA1 141319Z 16001KT M01/M02 A3021 RMK A01 T10051017  RH  092%=      5-min Rain = 0
KVA1 141320Z 11001KT M01/M02 A3021 RMK A01 T10051017  RH  092%=      5-min Rain = 0
KVA1 141321Z 09002KT M01/M02 A3021 RMK A01 T10061017  RH  092%=      5-min Rain = 0
KVA1 141322Z 11002KT M01/M02 A3021 RMK A01 T10061017  RH  092%=      5-min Rain = 0
KVA1 141323Z 10002KT M01/M02 A3021 RMK A01 T10071018  RH  092%=      5-min Rain = 0
KVA1 141324Z 09000KT M01/M02 A3021 RMK A01 T10071018  RH  092%=      5-min Rain = 0
KVA1 141325Z 00000KT M01/M02 A3021 RMK A01 T10081018  RH  093%=      5-min Rain = 0
KVA1 141326Z 00000KT M01/M02 A3021 RMK A01 T10081018  RH  093%=      5-min Rain = 0
KVA1 141327Z 00000KT M01/M02 A3021 RMK A01 T10081017  RH  093%=      5-min Rain = 0
KVA1 141328Z 00000KT M01/M02 A3021 RMK A01 T10081018  RH  093%=      5-min Rain = 0
KVA1 141329Z 00000KT M01/M02 A3021 RMK A01 T10081018  RH  093%=      5-min Rain = 0
KVA1 141330Z 00000KT M01/M02 A3021 RMK A01 T10091018  RH  093%=      5-min Rain = 0
KVA1 141331Z 18001KT M01/M02 A3021 RMK A01 T10091018  RH  094%=      5-min Rain = 0
KVA1 141332Z 21001KT M01/M02 A3021 RMK A01 T10091017  RH  094%=      5-min Rain = 0
KVA1 141333Z 25001KT M01/M02 A3021 RMK A01 T10081017  RH  094%=      5-min Rain = 0
KVA1 141334Z 25001KT M01/M02 A3021 RMK A01 T10081016  RH  094%=      5-min Rain = 0
KVA1 141335Z 24001KT M01/M02 A3021 RMK A01 T10071016  RH  094%=      5-min Rain = 0
KVA1 141336Z 25001KT M01/M02 A3021 RMK A01 T10071015  RH  094%=      5-min Rain = 0
KVA1 141337Z 26001KT M01/M02 A3021 RMK A01 T10081016  RH  094%=      5-min Rain = 0
KVA1 141338Z 00000KT M01/M02 A3021 RMK A01 T10091018  RH  094%=      5-min Rain = 0
KVA1 141339Z 00000KT M01/M02 A3021 RMK A01 T10111020  RH  093%=      5-min Rain = 0
KVA1 141340Z 00000KT M01/M02 A3021 RMK A01 T10111021  RH  094%=      5-min Rain = 0
KVA1 141341Z 00000KT M01/M02 A3021 RMK A01 T10121021  RH  094%=      5-min Rain = 0
KVA1 141342Z 00000KT M01/M02 A3021 RMK A01 T10131022  RH  094%=      5-min Rain = 0
KVA1 141343Z 00000KT M01/M02 A3021 RMK A01 T10131021  RH  094%=      5-min Rain = 0
KVA1 141344Z 00000KT M01/M02 A3021 RMK A01 T10121020  RH  095%=      5-min Rain = 0
KVA1 141345Z 00000KT M01/M02 A3021 RMK A01 T10111018  RH  095%=      5-min Rain = 0
KVA1 141346Z 26000KT M01/M02 A3021 RMK A01 T10101017  RH  095%=      5-min Rain = 0
KVA1 141347Z 26001KT M01/M02 A3021 RMK A01 T10101017  RH  095%=      5-min Rain = 0
KVA1 141348Z 26001KT M01/M02 A3021 RMK A01 T10101017  RH  095%=      5-min Rain = 0
KVA1 141349Z 26001KT M01/M02 A3021 RMK A01 T10091017  RH  095%=      5-min Rain = 0
KVA1 141350Z 26001KT M01/M02 A3021 RMK A01 T10091017  RH  095%=      5-min Rain = 0
KVA1 141351Z 25002KT M01/M02 A3021 RMK A01 T10091017  RH  094%=      5-min Rain = 0
KVA1 141352Z 25002KT M01/M02 A3021 RMK A01 T10091017  RH  094%=      5-min Rain = 0
KVA1 141353Z 25002KT M01/M02 A3021 RMK A01 T10081015  RH  095%=      5-min Rain = 0
KVA1 141354Z 25002KT M01/M02 A3021 RMK A01 T10071015  RH  095%=      5-min Rain = 0
KVA1 141355Z 26002KT M01/M02 A3021 RMK A01 T10071015  RH  094%=      5-min Rain = 0
KVA1 141356Z 26002KT M01/M02 A3021 RMK A01 T10071016  RH  094%=      5-min Rain = 0
KVA1 141357Z 26002KT M01/M02 A3021 RMK A01 T10081017  RH  094%=      5-min Rain = 0
KVA1 141358Z 26001KT M01/M02 A3021 RMK A01 T10091018  RH  093%=      5-min Rain = 0
KVA1 141359Z 26000KT M01/M02 A3021 RMK A01 T10091019  RH  093%=      5-min Rain = 0
KVA1 141400Z 06003KT M01/M02 A3021 RMK A01 T10091018  RH  093%=      5-min Rain = 0
KVA1 141401Z 06003KT M01/M02 A3021 RMK A01 T10081017  RH  094%=      5-min Rain = 0
KVA1 141402Z 05002KT M01/M02 A3021 RMK A01 T10071015  RH  094%=      5-min Rain = 0
KVA1 141403Z 03002KT M01/M01 A3021 RMK A01 T10061014  RH  094%=      5-min Rain = 0
KVA1 141404Z 03002KT M01/M01 A3021 RMK A01 T10051013  RH  094%=      5-min Rain = 0
KVA1 141405Z 02001KT M00/M01 A3021 RMK A01 T10041012  RH  094%=      5-min Rain = 0
KVA1 141406Z 01001KT M00/M01 A3022 RMK A01 T10041012  RH  094%=      5-min Rain = 0
KVA1 141407Z 01001KT M00/M01 A3022 RMK A01 T10031012  RH  094%=      5-min Rain = 0
KVA1 141408Z 01001KT M00/M01 A3022 RMK A01 T10031012  RH  094%=      5-min Rain = 0
KVA1 141409Z 01001KT M00/M01 A3022 RMK A01 T10031011  RH  094%=      5-min Rain = 0
KVA1 141410Z 01001KT M00/M01 A3022 RMK A01 T10021011  RH  094%=      5-min Rain = 0
KVA1 141411Z 01000KT M00/M01 A3022 RMK A01 T10011010  RH  094%=      5-min Rain = 0
KVA1 141412Z 00000KT M00/M01 A3022 RMK A01 T10011011  RH  093%=      5-min Rain = 0
KVA1 141413Z 00000KT M00/M01 A3022 RMK A01 T10011011  RH  093%=      5-min Rain = 0
KVA1 141414Z 00000KT 00/01 A3021 RMK A01 T00-00-10  RH  093%=      5-min Rain = 0
KVA1 141415Z 00000KT 00/M01 A3021 RMK A01 T00011009  RH  093%=      5-min Rain = 0
KVA1 141416Z 00000KT 00/M01 A3021 RMK A01 T00011009  RH  093%=      5-min Rain = 0
KVA1 141417Z 00000KT 00/M01 A3021 RMK A01 T00031007  RH  093%=      5-min Rain = 0
KVA1 141418Z 00000KT 00/M01 A3021 RMK A01 T00041007  RH  093%=      5-min Rain = 0
KVA1 141419Z 00000KT 00/M01 A3021 RMK A01 T00041006  RH  093%=      5-min Rain = 0
KVA1 141420Z 00000KT 01/M01 A3021 RMK A01 T00051005  RH  093%=      5-min Rain = 0
KVA1 141421Z 07000KT 01/M00 A3021 RMK A01 T00061004  RH  093%=      5-min Rain = 0
KVA1 141422Z 07000KT 01/M00 A3021 RMK A01 T00071003  RH  093%=      5-min Rain = 0
KVA1 141423Z 00000KT 01/M00 A3022 RMK A01 T00081003  RH  092%=      5-min Rain = 0
KVA1 141424Z 00000KT 01/M00 A3022 RMK A01 T00091003  RH  092%=      5-min Rain = 0
KVA1 141425Z 00000KT 01/M00 A3022 RMK A01 T00111002  RH  091%=      5-min Rain = 0
KVA1 141426Z 00000KT 01/M00 A3022 RMK A01 T00121002  RH  090%=      5-min Rain = 0
KVA1 141427Z 00000KT 01/M00 A3022 RMK A01 T00131002  RH  090%=      5-min Rain = 0
KVA1 141428Z 23001KT 01/M00 A3022 RMK A01 T00131003  RH  089%=      5-min Rain = 0
KVA1 141429Z 23001KT 02/M00 A3022 RMK A01 T00151002  RH  089%=      5-min Rain = 0
KVA1 141430Z 24001KT 02/M00 A3022 RMK A01 T00161002  RH  088%=      5-min Rain = 0
KVA1 141431Z 24001KT 02/M00 A3022 RMK A01 T00161002  RH  088%=      5-min Rain = 0
KVA1 141432Z 24000KT 02/M00 A3022 RMK A01 T00171002  RH  087%=      5-min Rain = 0
KVA1 141433Z 00000KT 02/M00 A3022 RMK A01 T00181001  RH  087%=      5-min Rain = 0
KVA1 141434Z 00000KT 02/00 A3022 RMK A01 T00200000  RH  087%=      5-min Rain = 0
KVA1 141435Z 01000KT 02/00 A3022 RMK A01 T00210001  RH  087%=      5-min Rain = 0
KVA1 141436Z 00001KT 02/00 A3022 RMK A01 T00230002  RH  086%=      5-min Rain = 0
KVA1 141437Z 00001KT 02/00 A3022 RMK A01 T00240001  RH  085%=      5-min Rain = 0
KVA1 141438Z 01001KT 02/M00 A3022 RMK A01 T00241001  RH  083%=      5-min Rain = 0
KVA1 141439Z 02002KT 03/M00 A3022 RMK A01 T00251002  RH  082%=      5-min Rain = 0
KVA1 141440Z 03001KT 03/M01 A3022 RMK A01 T00261005  RH  080%=      5-min Rain = 0
KVA1 141441Z 01002KT 03/M01 A3022 RMK A01 T00261005  RH  080%=      5-min Rain = 0
KVA1 141442Z 02001KT 03/M01 A3022 RMK A01 T00261005  RH  080%=      5-min Rain = 0
KVA1 141443Z 03002KT 03/M00 A3022 RMK A01 T00271004  RH  080%=      5-min Rain = 0
KVA1 141444Z 03002KT 03/M00 A3022 RMK A01 T00271004  RH  080%=      5-min Rain = 0
KVA1 141445Z 02002KT 03/M00 A3022 RMK A01 T00271003  RH  080%=      5-min Rain = 0
KVA1 141446Z 03001KT 03/M00 A3022 RMK A01 T00271003  RH  080%=      5-min Rain = 0
KVA1 141447Z 01001KT 03/M00 A3022 RMK A01 T00271003  RH  080%=      5-min Rain = 0
KVA1 141448Z 35001KT 03/M00 A3022 RMK A01 T00281003  RH  080%=      5-min Rain = 0
KVA1 141449Z 35001KT 03/M00 A3022 RMK A01 T00281003  RH  080%=      5-min Rain = 0
KVA1 141450Z 01001KT 03/M00 A3022 RMK A01 T00281003  RH  080%=      5-min Rain = 0
KVA1 141451Z 36001KT 03/M00 A3022 RMK A01 T00281002  RH  080%=      5-min Rain = 0
KVA1 141452Z 36001KT 03/M00 A3022 RMK A01 T00291003  RH  080%=      5-min Rain = 0
KVA1 141453Z 36002KT 03/M00 A3022 RMK A01 T00291003  RH  079%=      5-min Rain = 0
KVA1 141454Z 34002KT 03/M00 A3023 RMK A01 T00291003  RH  079%=      5-min Rain = 0
KVA1 141455Z 36002KT 03/M00 A3023 RMK A01 T00301003  RH  079%=      5-min Rain = 0
KVA1 141456Z 36003KT 03/M00 A3023 RMK A01 T00301003  RH  079%=      5-min Rain = 0
KVA1 141457Z 35002KT 03/M00 A3023 RMK A01 T00301004  RH  079%=      5-min Rain = 0
KVA1 141458Z 34002KT 03/M00 A3023 RMK A01 T00301003  RH  079%=      5-min Rain = 0
KVA1 141459Z 34002KT 03/M00 A3023 RMK A01 T00291003  RH  079%=      5-min Rain = 0
KVA1 141500Z 31002KT 03/M00 A3023 RMK A01 T00301002  RH  080%=      5-min Rain = 0
KVA1 141501Z 33002KT 03/M00 A3023 RMK A01 T00311001  RH  079%=      5-min Rain = 0
KVA1 141502Z 32001KT 03/M00 A3023 RMK A01 T00311003  RH  079%=      5-min Rain = 0
KVA1 141503Z 31001KT 03/M00 A3023 RMK A01 T00311003  RH  078%=      5-min Rain = 0
KVA1 141504Z 32002KT 03/M00 A3023 RMK A01 T00321002  RH  078%=      5-min Rain = 0
KVA1 141505Z 30002KT 03/M00 A3023 RMK A01 T00321003  RH  078%=      5-min Rain = 0
KVA1 141506Z 31001KT 03/M00 A3023 RMK A01 T00331001  RH  078%=      5-min Rain = 0
KVA1 141507Z 29001KT 03/M00 A3023 RMK A01 T00341002  RH  078%=      5-min Rain = 0
KVA1 141508Z 28001KT 04/M00 A3023 RMK A01 T00351002  RH  077%=      5-min Rain = 0
KVA1 141509Z 31001KT 04/M00 A3023 RMK A01 T00361001  RH  077%=      5-min Rain = 0
KVA1 141510Z 31002KT 04/M00 A3023 RMK A01 T00361002  RH  077%=      5-min Rain = 0
KVA1 141511Z 32001KT 04/M00 A3023 RMK A01 T00361002  RH  076%=      5-min Rain = 0
KVA1 141512Z 29002KT 04/M00 A3023 RMK A01 T00371001  RH  076%=      5-min Rain = 0
KVA1 141513Z 30001KT 04/M00 A3023 RMK A01 T00381001  RH  076%=      5-min Rain = 0
KVA1 141514Z 32001KT 04/00 A3023 RMK A01 T00390000  RH  076%=      5-min Rain = 0
KVA1 141515Z 31001KT 04/00 A3023 RMK A01 T00400001  RH  075%=      5-min Rain = 0
KVA1 141516Z 33001KT 04/M00 A3023 RMK A01 T00411001  RH  075%=      5-min Rain = 0
KVA1 141517Z 32002KT 04/00 A3023 RMK A01 T00410001  RH  075%=      5-min Rain = 0
KVA1 141518Z 31002KT 04/00 A3023 RMK A01 T00430002  RH  075%=      5-min Rain = 0
KVA1 141519Z 31002KT 04/00 A3023 RMK A01 T00440001  RH  074%=      5-min Rain = 0
KVA1 141520Z 29002KT 04/00 A3023 RMK A01 T004400-0  RH  073%=      5-min Rain = 0
KVA1 141521Z 29002KT 04/00 A3023 RMK A01 T004400-0  RH  073%=      5-min Rain = 0
KVA1 141522Z 30002KT 05/M00 A3023 RMK A01 T00451002  RH  072%=      5-min Rain = 0
KVA1 141523Z 28002KT 05/M00 A3023 RMK A01 T00451002  RH  072%=      5-min Rain = 0
KVA1 141524Z 28002KT 05/M00 A3023 RMK A01 T00461001  RH  072%=      5-min Rain = 0
KVA1 141525Z 30003KT 05/M00 A3023 RMK A01 T00471001  RH  071%=      5-min Rain = 0
KVA1 141526Z 27002KT 05/M00 A3023 RMK A01 T00471002  RH  070%=      5-min Rain = 0
KVA1 141527Z 27002KT 05/M00 A3023 RMK A01 T00481002  RH  070%=      5-min Rain = 0
KVA1 141528Z 28003KT 05/M00 A3023 RMK A01 T00481002  RH  070%=      5-min Rain = 0
KVA1 141529Z 26003KT 05/M00 A3023 RMK A01 T00491003  RH  069%=      5-min Rain = 0
KVA1 141530Z 27001KT 05/M00 A3023 RMK A01 T00501003  RH  069%=      5-min Rain = 0
KVA1 141531Z 26001KT 05/M01 A3023 RMK A01 T00501005  RH  067%=      5-min Rain = 0
KVA1 141532Z 25001KT 05/M00 A3023 RMK A01 T00511004  RH  067%=      5-min Rain = 0
KVA1 141533Z 23001KT 05/M01 A3023 RMK A01 T00521005  RH  067%=      5-min Rain = 0
KVA1 141534Z 28001KT 05/M00 A3023 RMK A01 T00531002  RH  067%=      5-min Rain = 0
KVA1 141535Z 21001KT 06/M00 A3024 RMK A01 T00551002  RH  067%=      5-min Rain = 0
KVA1 141536Z 21002KT 06/M00 A3024 RMK A01 T00551003  RH  066%=      5-min Rain = 0
KVA1 141537Z 23001KT 06/M00 A3024 RMK A01 T00561003  RH  066%=      5-min Rain = 0
KVA1 141538Z 24001KT 06/M00 A3024 RMK A01 T00561004  RH  065%=      5-min Rain = 0
KVA1 141539Z 21003KT 06/M00 A3024 RMK A01 T00571004  RH  065%=      5-min Rain = 0
KVA1 141540Z 21003KT 06/M00 A3024 RMK A01 T00571004  RH  065%=      5-min Rain = 0
KVA1 141541Z 21002KT 06/M01 A3024 RMK A01 T00571005  RH  065%=      5-min Rain = 0
KVA1 141542Z 25003KT 06/M00 A3024 RMK A01 T00571003  RH  065%=      5-min Rain = 0
KVA1 141543Z 24003KT 06/M00 A3024 RMK A01 T00581004  RH  064%=      5-min Rain = 0
KVA1 141544Z 24002KT 06/M00 A3024 RMK A01 T00581003  RH  065%=      5-min Rain = 0
KVA1 141545Z 20002KT 06/M00 A3024 RMK A01 T00591003  RH  064%=      5-min Rain = 0
KVA1 141546Z 19002KT 06/M00 A3024 RMK A01 T00591004  RH  064%=      5-min Rain = 0
KVA1 141547Z 21001KT 06/M00 A3024 RMK A01 T00601004  RH  064%=      5-min Rain = 0
KVA1 141548Z 21002KT 06/M00 A3024 RMK A01 T00611001  RH  064%=      5-min Rain = 0
KVA1 141549Z 23002KT 06/M00 A3024 RMK A01 T00621002  RH  064%=      5-min Rain = 0
KVA1 141550Z 25002KT 06/M00 A3024 RMK A01 T00621001  RH  064%=      5-min Rain = 0
KVA1 141551Z 25001KT 06/00 A3024 RMK A01 T00630000  RH  064%=      5-min Rain = 0
KVA1 141552Z 27003KT 06/M00 A3024 RMK A01 T00641001  RH  063%=      5-min Rain = 0
KVA1 141553Z 25002KT 06/M00 A3024 RMK A01 T00641002  RH  063%=      5-min Rain = 0
KVA1 141554Z 24002KT 06/M00 A3024 RMK A01 T00641002  RH  063%=      5-min Rain = 0
KVA1 141555Z 25001KT 07/00 A3024 RMK A01 T00650001  RH  063%=      5-min Rain = 0
KVA1 141556Z 29000KT 07/00 A3024 RMK A01 T00660001  RH  063%=      5-min Rain = 0
KVA1 141557Z 30001KT 07/M00 A3024 RMK A01 T00671003  RH  061%=      5-min Rain = 0
KVA1 141558Z 32001KT 07/M00 A3024 RMK A01 T00671003  RH  061%=      5-min Rain = 0
KVA1 141559Z 20000KT 07/M00 A3024 RMK A01 T00691002  RH  061%=      5-min Rain = 0
KVA1 141600Z 20002KT 07/M00 A3024 RMK A01 T00701003  RH  060%=      5-min Rain = 0
KVA1 141601Z 19001KT 07/M01 A3024 RMK A01 T00691005  RH  059%=      5-min Rain = 0
KVA1 141602Z 21000KT 07/M00 A3024 RMK A01 T00691002  RH  060%=      5-min Rain = 0
KVA1 141603Z 27001KT 07/M00 A3024 RMK A01 T00701004  RH  059%=      5-min Rain = 0
KVA1 141604Z 27001KT 07/M01 A3024 RMK A01 T00711006  RH  058%=      5-min Rain = 0
KVA1 141605Z 00000KT 07/M01 A3024 RMK A01 T00711005  RH  058%=      5-min Rain = 0
KVA1 141606Z 00000KT 07/M00 A3024 RMK A01 T00711003  RH  059%=      5-min Rain = 0
KVA1 141607Z 02000KT 07/00 A3024 RMK A01 T00720001  RH  061%=      5-min Rain = 0
KVA1 141608Z 26000KT 07/M00 A3024 RMK A01 T00741002  RH  059%=      5-min Rain = 0
KVA1 141609Z 00000KT 07/M00 A3024 RMK A01 T00741003  RH  058%=      5-min Rain = 0
KVA1 141610Z 00000KT 07/M00 A3024 RMK A01 T00741002  RH  059%=      5-min Rain = 0
KVA1 141611Z 20001KT 08/00 A3024 RMK A01 T00750003  RH  060%=      5-min Rain = 0
KVA1 141612Z 24002KT 08/M00 A3024 RMK A01 T00761001  RH  058%=      5-min Rain = 0
KVA1 141613Z 25001KT 08/M00 A3024 RMK A01 T00751003  RH  058%=      5-min Rain = 0
KVA1 141614Z 19000KT 07/M01 A3024 RMK A01 T00741005  RH  057%=      5-min Rain = 0
KVA1 141615Z 21001KT 07/M00 A3024 RMK A01 T00731004  RH  058%=      5-min Rain = 0
KVA1 141616Z 21001KT 07/00 A3024 RMK A01 T00740000  RH  060%=      5-min Rain = 0
KVA1 141617Z 16001KT 07/M00 A3024 RMK A01 T00741001  RH  059%=      5-min Rain = 0
KVA1 141618Z 17001KT 08/00 A3024 RMK A01 T00760002  RH  059%=      5-min Rain = 0
KVA1 141619Z 16001KT 08/00 A3024 RMK A01 T00790001  RH  058%=      5-min Rain = 0
KVA1 141620Z 22002KT 08/00 A3024 RMK A01 T00810002  RH  057%=      5-min Rain = 0
KVA1 141621Z 23002KT 08/00 A3024 RMK A01 T00820001  RH  057%=      5-min Rain = 0
KVA1 141622Z 22002KT 08/M00 A3024 RMK A01 T00811001  RH  056%=      5-min Rain = 0
KVA1 141623Z 24002KT 08/M00 A3024 RMK A01 T00791002  RH  056%=      5-min Rain = 0
KVA1 141624Z 24002KT 08/M00 A3024 RMK A01 T00791001  RH  057%=      5-min Rain = 0
KVA1 141625Z 23001KT 08/M00 A3024 RMK A01 T00791004  RH  056%=      5-min Rain = 0
KVA1 141626Z 24000KT 08/M00 A3024 RMK A01 T00781004  RH  056%=      5-min Rain = 0
KVA1 141627Z 22000KT 08/M00 A3024 RMK A01 T00781003  RH  057%=      5-min Rain = 0
KVA1 141628Z 23000KT 08/M00 A3024 RMK A01 T00791001  RH  057%=      5-min Rain = 0
KVA1 141629Z 18000KT 08/M00 A3024 RMK A01 T00811001  RH  056%=      5-min Rain = 0
KVA1 141630Z 20001KT 08/M00 A3024 RMK A01 T00821001  RH  056%=      5-min Rain = 0
KVA1 141631Z 22000KT 08/00 A3024 RMK A01 T008200-0  RH  056%=      5-min Rain = 0
KVA1 141632Z 24000KT 08/00 A3024 RMK A01 T00840001  RH  056%=      5-min Rain = 0
KVA1 141633Z 21000KT 08/00 A3024 RMK A01 T00840001  RH  056%=      5-min Rain = 0
KVA1 141634Z 03000KT 09/00 A3024 RMK A01 T00850003  RH  056%=      5-min Rain = 0
KVA1 141635Z 02002KT 09/00 A3024 RMK A01 T00870001  RH  055%=      5-min Rain = 0
KVA1 141636Z 09001KT 09/00 A3024 RMK A01 T00860002  RH  055%=      5-min Rain = 0
KVA1 141637Z 13001KT 09/00 A3024 RMK A01 T00870003  RH  056%=      5-min Rain = 0
KVA1 141638Z 10000KT 09/M00 A3024 RMK A01 T00871001  RH  054%=      5-min Rain = 0
KVA1 141639Z 18001KT 09/M00 A3024 RMK A01 T00881001  RH  054%=      5-min Rain = 0
KVA1 141640Z 18002KT 09/M00 A3024 RMK A01 T00881003  RH  053%=      5-min Rain = 0
KVA1 141641Z 18002KT 09/M00 A3024 RMK A01 T00881004  RH  052%=      5-min Rain = 0
KVA1 141642Z 17001KT 09/M00 A3024 RMK A01 T00881004  RH  053%=      5-min Rain = 0
KVA1 141643Z 20001KT 09/M01 A3024 RMK A01 T00891006  RH  052%=      5-min Rain = 0
KVA1 141644Z 19002KT 09/M01 A3024 RMK A01 T00891005  RH  052%=      5-min Rain = 0
KVA1 141645Z 20002KT 09/M00 A3024 RMK A01 T00881003  RH  053%=      5-min Rain = 0
KVA1 141646Z 20002KT 09/M00 A3024 RMK A01 T00881003  RH  053%=      5-min Rain = 0
KVA1 141647Z 18002KT 09/M00 A3024 RMK A01 T00871003  RH  053%=      5-min Rain = 0
KVA1 141648Z 22001KT 09/M00 A3024 RMK A01 T00871004  RH  053%=      5-min Rain = 0
KVA1 141649Z 21002KT 09/M00 A3024 RMK A01 T00881003  RH  053%=      5-min Rain = 0
KVA1 141650Z 22001KT 09/M00 A3024 RMK A01 T00891003  RH  052%=      5-min Rain = 0
KVA1 141651Z 19000KT 09/M00 A3024 RMK A01 T00891004  RH  052%=      5-min Rain = 0
KVA1 141652Z 08001KT 09/M00 A3024 RMK A01 T00901001  RH  053%=      5-min Rain = 0
KVA1 141653Z 12002KT 09/00 A3024 RMK A01 T00920001  RH  053%=      5-min Rain = 0
KVA1 141654Z 12002KT 09/00 A3024 RMK A01 T00930001  RH  053%=      5-min Rain = 0
KVA1 141655Z 11003KT 09/M00 A3024 RMK A01 T00941001  RH  052%=      5-min Rain = 0
KVA1 141656Z 14002KT 09/00 A3024 RMK A01 T00940002  RH  053%=      5-min Rain = 0
KVA1 141657Z 11002KT 10/01 A3023 RMK A01 T00970006  RH  053%=      5-min Rain = 0
KVA1 141658Z 10003KT 10/00 A3023 RMK A01 T00970001  RH  051%=      5-min Rain = 0
KVA1 141659Z 11004KT 10/00 A3023 RMK A01 T00980003  RH  052%=      5-min Rain = 0
KVA1 141700Z 13003KT 10/00 A3023 RMK A01 T00970003  RH  052%=      5-min Rain = 0
KVA1 141701Z 13001KT 10/00 A3023 RMK A01 T00970001  RH  051%=      5-min Rain = 0
KVA1 141702Z 15004KT 10/00 A3023 RMK A01 T00970001  RH  051%=      5-min Rain = 0
KVA1 141703Z 15004KT 10/00 A3023 RMK A01 T00980003  RH  052%=      5-min Rain = 0
KVA1 141704Z 15002KT 10/00 A3023 RMK A01 T00980001  RH  051%=      5-min Rain = 0
KVA1 141705Z 16002KT 10/00 A3023 RMK A01 T00990000  RH  050%=      5-min Rain = 0
KVA1 141706Z 13001KT 10/M00 A3023 RMK A01 T00991001  RH  050%=      5-min Rain = 0
KVA1 141707Z 18003KT 10/00 A3023 RMK A01 T01000001  RH  050%=      5-min Rain = 0
KVA1 141708Z 19003KT 10/00 A3023 RMK A01 T01000004  RH  051%=      5-min Rain = 0
KVA1 141709Z 13002KT 10/01 A3023 RMK A01 T01010006  RH  052%=      5-min Rain = 0
KVA1 141710Z 12002KT 10/00 A3023 RMK A01 T01020002  RH  050%=      5-min Rain = 0
KVA1 141711Z 13002KT 10/00 A3023 RMK A01 T01030002  RH  049%=      5-min Rain = 0
KVA1 141712Z 10001KT 10/01 A3023 RMK A01 T01040005  RH  050%=      5-min Rain = 0
KVA1 141713Z 10003KT 11/01 A3023 RMK A01 T01060007  RH  050%=      5-min Rain = 0
KVA1 141714Z 09002KT 11/01 A3023 RMK A01 T01060006  RH  050%=      5-min Rain = 0
KVA1 141715Z 11003KT 11/01 A3023 RMK A01 T01070005  RH  050%=      5-min Rain = 0
KVA1 141716Z 13003KT 11/01 A3023 RMK A01 T01070005  RH  049%=      5-min Rain = 0
KVA1 141717Z 11004KT 11/01 A3023 RMK A01 T01070006  RH  050%=      5-min Rain = 0
KVA1 141718Z 10004KT 11/01 A3023 RMK A01 T01070006  RH  050%=      5-min Rain = 0
KVA1 141719Z 10003KT 11/01 A3023 RMK A01 T01060005  RH  049%=      5-min Rain = 0
KVA1 141720Z 12003KT 11/01 A3023 RMK A01 T01050006  RH  050%=      5-min Rain = 0
KVA1 141721Z 14003KT 11/00 A3023 RMK A01 T01050004  RH  049%=      5-min Rain = 0
KVA1 141722Z 17003KT 11/00 A3023 RMK A01 T01060004  RH  049%=      5-min Rain = 0
KVA1 141723Z 14004KT 11/01 A3023 RMK A01 T01070006  RH  050%=      5-min Rain = 0
KVA1 141724Z 15003KT 11/01 A3023 RMK A01 T01090006  RH  049%=      5-min Rain = 0
KVA1 141725Z 12003KT 11/01 A3023 RMK A01 T01100007  RH  049%=      5-min Rain = 0
KVA1 141726Z 13004KT 11/00 A3023 RMK A01 T01100004  RH  048%=      5-min Rain = 0
KVA1 141727Z 15004KT 11/01 A3023 RMK A01 T01100008  RH  049%=      5-min Rain = 0
KVA1 141728Z 16003KT 11/01 A3023 RMK A01 T01120005  RH  048%=      5-min Rain = 0
KVA1 141729Z 16003KT 11/00 A3023 RMK A01 T01120002  RH  047%=      5-min Rain = 0
KVA1 141730Z 14003KT 11/00 A3023 RMK A01 T01110004  RH  048%=      5-min Rain = 0
KVA1 141731Z 15003KT 11/01 A3023 RMK A01 T01120007  RH  048%=      5-min Rain = 0
KVA1 141732Z 15002KT 11/01 A3022 RMK A01 T01130008  RH  048%=      5-min Rain = 0
KVA1 141733Z 15001KT 12/01 A3022 RMK A01 T01160008  RH  047%=      5-min Rain = 0
KVA1 141734Z 14002KT 12/01 A3022 RMK A01 T01170005  RH  046%=      5-min Rain = 0
KVA1 141735Z 13001KT 12/00 A3022 RMK A01 T01170003  RH  046%=      5-min Rain = 0
KVA1 141736Z 11001KT 12/00 A3022 RMK A01 T01160004  RH  046%=      5-min Rain = 0
KVA1 141737Z 17001KT 12/00 A3022 RMK A01 T01160002  RH  045%=      5-min Rain = 0
KVA1 141738Z 20003KT 12/01 A3022 RMK A01 T01160005  RH  046%=      5-min Rain = 0
KVA1 141739Z 20002KT 12/01 A3022 RMK A01 T01160005  RH  046%=      5-min Rain = 0
KVA1 141740Z 23002KT 12/00 A3022 RMK A01 T01160004  RH  046%=      5-min Rain = 0
KVA1 141741Z 21001KT 12/00 A3022 RMK A01 T01160001  RH  045%=      5-min Rain = 0
KVA1 141742Z 18002KT 12/00 A3022 RMK A01 T01160003  RH  046%=      5-min Rain = 0
KVA1 141743Z 15001KT 12/01 A3022 RMK A01 T01180006  RH  046%=      5-min Rain = 0
KVA1 141744Z 16002KT 12/01 A3022 RMK A01 T01200005  RH  045%=      5-min Rain = 0
KVA1 141745Z 16004KT 12/01 A3022 RMK A01 T01200006  RH  045%=      5-min Rain = 0
KVA1 141746Z 16007KT 12/01 A3022 RMK A01 T01230007  RH  045%=      5-min Rain = 0
KVA1 141747Z 15006G11KT 12/01 A3022 RMK A01 T01230005  RH  044%=      5-min Rain = 0
KVA1 141748Z 14003KT 13/00 A3022 RMK A01 T01250004  RH  044%=      5-min Rain = 0
KVA1 141749Z 16002KT 13/01 A3022 RMK A01 T01250005  RH  044%=      5-min Rain = 0
KVA1 141750Z 15003KT 13/01 A3022 RMK A01 T01250005  RH  044%=      5-min Rain = 0
KVA1 141751Z 19006KT 13/01 A3022 RMK A01 T01270006  RH  043%=      5-min Rain = 0
KVA1 141752Z 18006KT 13/01 A3022 RMK A01 T01270005  RH  043%=      5-min Rain = 0
KVA1 141753Z 16007KT 13/00 A3022 RMK A01 T01280001  RH  042%=      5-min Rain = 0
KVA1 141754Z 17006KT 13/M00 A3022 RMK A01 T01261004  RH  041%=      5-min Rain = 0
KVA1 141755Z 16008KT 13/00 A3021 RMK A01 T01250000  RH  042%=      5-min Rain = 0
KVA1 141756Z 15009KT 13/00 A3021 RMK A01 T01280002  RH  042%=      5-min Rain = 0
KVA1 141757Z 15007KT 13/00 A3021 RMK A01 T01290000  RH  041%=      5-min Rain = 0
KVA1 141758Z 15007KT 13/00 A3021 RMK A01 T012900-0  RH  041%=      5-min Rain = 0
KVA1 141759Z 16006KT 13/00 A3021 RMK A01 T01300002  RH  042%=      5-min Rain = 0
KVA1 141800Z 18007KT 13/00 A3021 RMK A01 T01310003  RH  041%=      5-min Rain = 0
KVA1 141801Z 19006KT 13/00 A3021 RMK A01 T01320003  RH  041%=      5-min Rain = 0
KVA1 141802Z 19004KT 13/00 A3021 RMK A01 T01320003  RH  041%=      5-min Rain = 0
KVA1 141803Z 18006KT 13/00 A3021 RMK A01 T01320003  RH  041%=      5-min Rain = 0
KVA1 141804Z 16008KT 13/00 A3021 RMK A01 T01340004  RH  041%=      5-min Rain = 0
KVA1 141805Z 17005KT 14/00 A3021 RMK A01 T01360003  RH  040%=      5-min Rain = 0
KVA1 141806Z 18006KT 14/00 A3021 RMK A01 T01370003  RH  040%=      5-min Rain = 0
KVA1 141807Z 19007KT 14/00 A3021 RMK A01 T01370004  RH  040%=      5-min Rain = 0
KVA1 141808Z 17005KT 13/M00 A3021 RMK A01 T01341003  RH  039%=      5-min Rain = 0
KVA1 141809Z 18006KT 13/00 A3021 RMK A01 T01320002  RH  041%=      5-min Rain = 0
KVA1 141810Z 20005KT 14/01 A3021 RMK A01 T01350005  RH  041%=      5-min Rain = 0
KVA1 141811Z 18006KT 14/00 A3021 RMK A01 T01360001  RH  040%=      5-min Rain = 0
KVA1 141812Z 18008KT 14/00 A3021 RMK A01 T01350002  RH  040%=      5-min Rain = 0
KVA1 141813Z 17007KT 14/M00 A3021 RMK A01 T01351001  RH  039%=      5-min Rain = 0
KVA1 141814Z 17007KT 13/M00 A3021 RMK A01 T01341001  RH  039%=      5-min Rain = 0
KVA1 141815Z 19008KT 13/00 A3021 RMK A01 T01340000  RH  040%=      5-min Rain = 0
KVA1 141816Z 19007KT 14/00 A3021 RMK A01 T01350001  RH  040%=      5-min Rain = 0
KVA1 141817Z 20008KT 14/00 A302 RMK A01 T01360003  RH  040%=      5-min Rain = 0
KVA1 141818Z 20008KT 14/00 A302 RMK A01 T01360003  RH  040%=      5-min Rain = 0
KVA1 141819Z 17009G15KT 14/00 A302 RMK A01 T01360001  RH  039%=      5-min Rain = 0
KVA1 141820Z 17007KT 14/M00 A302 RMK A01 T01361001  RH  039%=      5-min Rain = 0
KVA1 141821Z 17005KT 14/00 A302 RMK A01 T013600-0  RH  039%=      5-min Rain = 0
KVA1 141822Z 18004KT 14/00 A302 RMK A01 T01370001  RH  039%=      5-min Rain = 0
KVA1 141823Z 16005KT 14/00 A302 RMK A01 T01380001  RH  039%=      5-min Rain = 0
KVA1 141824Z 18008KT 14/00 A302 RMK A01 T01390002  RH  039%=      5-min Rain = 0
KVA1 141825Z 19006KT 14/M00 A302 RMK A01 T01371002  RH  038%=      5-min Rain = 0
KVA1 141826Z 17006KT 14/00 A302 RMK A01 T013500-0  RH  039%=      5-min Rain = 0
KVA1 141827Z 19004KT 13/M00 A302 RMK A01 T01341002  RH  039%=      5-min Rain = 0
KVA1 141828Z 15008KT 13/00 A302 RMK A01 T01340000  RH  040%=      5-min Rain = 0
KVA1 141829Z 16007KT 14/00 A302 RMK A01 T013600-0  RH  039%=      5-min Rain = 0
KVA1 141830Z 17007KT 14/00 A302 RMK A01 T01390003  RH  040%=      5-min Rain = 0
KVA1 141831Z 16004KT 14/00 A302 RMK A01 T01420003  RH  039%=      5-min Rain = 0
KVA1 141832Z 17005KT 14/00 A302 RMK A01 T01430002  RH  038%=      5-min Rain = 0
KVA1 141833Z 18005KT 14/00 A302 RMK A01 T014300-0  RH  037%=      5-min Rain = 0
KVA1 141834Z 20006KT 14/00 A302 RMK A01 T01420000  RH  038%=      5-min Rain = 0
KVA1 141835Z 17007KT 14/00 A302 RMK A01 T01420004  RH  039%=      5-min Rain = 0
KVA1 141836Z 17004KT 14/00 A302 RMK A01 T01430000  RH  038%=      5-min Rain = 0
KVA1 141837Z 16006KT 14/00 A302 RMK A01 T01420000  RH  038%=      5-min Rain = 0
KVA1 141838Z 17006KT 14/00 A302 RMK A01 T01420002  RH  038%=      5-min Rain = 0
KVA1 141839Z 16004KT 14/00 A3019 RMK A01 T01440001  RH  038%=      5-min Rain = 0
KVA1 141840Z 21003KT 14/00 A3019 RMK A01 T01440000  RH  037%=      5-min Rain = 0
KVA1 141841Z 19003KT 14/M00 A3019 RMK A01 T01431002  RH  037%=      5-min Rain = 0
KVA1 141842Z 18007KT 14/00 A3019 RMK A01 T01420002  RH  038%=      5-min Rain = 0
KVA1 141843Z 19007KT 14/00 A3019 RMK A01 T01440002  RH  038%=      5-min Rain = 0
KVA1 141844Z 18004KT 14/00 A3019 RMK A01 T01440000  RH  037%=      5-min Rain = 0
KVA1 141845Z 15007KT 15/00 A3019 RMK A01 T01450001  RH  037%=      5-min Rain = 0
KVA1 141846Z 16006KT 15/00 A3019 RMK A01 T01470003  RH  037%=      5-min Rain = 0
KVA1 141847Z 16007KT 15/00 A3019 RMK A01 T01490000  RH  036%=      5-min Rain = 0
KVA1 141848Z 16005KT 15/M00 A3019 RMK A01 T01481003  RH  036%=      5-min Rain = 0
KVA1 141849Z 16007KT 15/M00 A3019 RMK A01 T01461002  RH  036%=      5-min Rain = 0
KVA1 141850Z 16008KT 15/00 A3019 RMK A01 T01470001  RH  037%=      5-min Rain = 0
KVA1 141851Z 16006KT 15/M00 A3019 RMK A01 T01471002  RH  036%=      5-min Rain = 0
KVA1 141852Z 15007KT 15/00 A3019 RMK A01 T01480001  RH  037%=      5-min Rain = 0
KVA1 141853Z 14005KT 15/M00 A3019 RMK A01 T01491002  RH  036%=      5-min Rain = 0
KVA1 141854Z 15004KT 15/M00 A3019 RMK A01 T01481002  RH  036%=      5-min Rain = 0
KVA1 141855Z 15003KT 15/M00 A3018 RMK A01 T01471003  RH  036%=      5-min Rain = 0
KVA1 141856Z 19004G9KT 15/M00 A3018 RMK A01 T01471002  RH  036%=      5-min Rain = 0
KVA1 141857Z 19007KT 15/00 A3018 RMK A01 T01470000  RH  037%=      5-min Rain = 0
KVA1 141858Z 18005KT 15/00 A3018 RMK A01 T01470001  RH  037%=      5-min Rain = 0
KVA1 141859Z 14004KT 15/00 A3018 RMK A01 T014800-0  RH  036%=      5-min Rain = 0
KVA1 141900Z 13002KT 15/M00 A3018 RMK A01 T01481003  RH  036%=      5-min Rain = 0
KVA1 141901Z 14001KT 15/M00 A3018 RMK A01 T01471002  RH  036%=      5-min Rain = 0
KVA1 141902Z 18001KT 15/M00 A3018 RMK A01 T01471003  RH  036%=      5-min Rain = 0
KVA1 141903Z 17002KT 15/00 A3018 RMK A01 T01470000  RH  037%=      5-min Rain = 0
KVA1 141904Z 20007KT 15/00 A3018 RMK A01 T01500002  RH  036%=      5-min Rain = 0
KVA1 141905Z 22006KT 15/00 A3018 RMK A01 T01510000  RH  036%=      5-min Rain = 0
KVA1 141906Z 22005KT 15/00 A3018 RMK A01 T01500002  RH  036%=      5-min Rain = 0
KVA1 141907Z 21007KT 15/00 A3018 RMK A01 T01510001  RH  036%=      5-min Rain = 0
KVA1 141908Z 21005KT 15/00 A3018 RMK A01 T01510003  RH  036%=      5-min Rain = 0
KVA1 141909Z 17006KT 15/00 A3018 RMK A01 T01530002  RH  036%=      5-min Rain = 0
KVA1 141910Z 14008KT 15/00 A3018 RMK A01 T01530001  RH  036%=      5-min Rain = 0
KVA1 141911Z 13005KT 15/00 A3017 RMK A01 T01540002  RH  035%=      5-min Rain = 0
KVA1 141912Z 13006KT 16/00 A3017 RMK A01 T01550002  RH  035%=      5-min Rain = 0
KVA1 141913Z 15006KT 16/00 A3017 RMK A01 T01550001  RH  035%=      5-min Rain = 0
KVA1 141914Z 16006KT 16/00 A3017 RMK A01 T01560001  RH  035%=      5-min Rain = 0
KVA1 141915Z 19008KT 16/00 A3017 RMK A01 T01550000  RH  035%=      5-min Rain = 0
KVA1 141916Z 20005KT 15/00 A3017 RMK A01 T01530002  RH  036%=      5-min Rain = 0
KVA1 141917Z 20005KT 15/00 A3017 RMK A01 T01530002  RH  036%=      5-min Rain = 0
KVA1 141918Z 20006KT 15/00 A3017 RMK A01 T01540002  RH  036%=      5-min Rain = 0
KVA1 141919Z 21006KT 15/M00 A3017 RMK A01 T01531001  RH  035%=      5-min Rain = 0
KVA1 141920Z 19006KT 15/00 A3017 RMK A01 T01520003  RH  036%=      5-min Rain = 0
KVA1 141921Z 19009KT 16/00 A3017 RMK A01 T01550004  RH  036%=      5-min Rain = 0
KVA1 141922Z 18006KT 16/00 A3017 RMK A01 T01570003  RH  035%=      5-min Rain = 0
KVA1 141923Z 19004KT 16/00 A3017 RMK A01 T015500-0  RH  035%=      5-min Rain = 0
KVA1 141924Z 19003KT 16/00 A3017 RMK A01 T01550003  RH  035%=      5-min Rain = 0
KVA1 141925Z 18003KT 16/00 A3017 RMK A01 T01570002  RH  035%=      5-min Rain = 0
KVA1 141926Z 18003KT 16/00 A3017 RMK A01 T01570002  RH  035%=      5-min Rain = 0
KVA1 141927Z 18007KT 16/00 A3017 RMK A01 T01580004  RH  035%=      5-min Rain = 0
KVA1 141928Z 20005KT 16/00 A3017 RMK A01 T01590002  RH  034%=      5-min Rain = 0
KVA1 141929Z 20006KT 16/00 A3017 RMK A01 T01570001  RH  034%=      5-min Rain = 0
KVA1 141930Z 17005KT 16/00 A3016 RMK A01 T01550000  RH  035%=      5-min Rain = 0
KVA1 141931Z 15004KT 16/00 A3016 RMK A01 T01550002  RH  035%=      5-min Rain = 0
KVA1 141932Z 14004KT 16/00 A3016 RMK A01 T01580004  RH  035%=      5-min Rain = 0
KVA1 141933Z 13003KT 16/00 A3016 RMK A01 T01590001  RH  034%=      5-min Rain = 0
KVA1 141934Z 17005KT 16/00 A3016 RMK A01 T01590002  RH  034%=      5-min Rain = 0
KVA1 141935Z 16008KT 16/01 A3016 RMK A01 T01600005  RH  035%=      5-min Rain = 0
KVA1 141936Z 17008KT 16/01 A3016 RMK A01 T01630005  RH  034%=      5-min Rain = 0
KVA1 141937Z 15007KT 16/00 A3016 RMK A01 T01630003  RH  034%=      5-min Rain = 0
KVA1 141938Z 15005KT 16/00 A3016 RMK A01 T01620001  RH  034%=      5-min Rain = 0
KVA1 141939Z 14004KT 16/00 A3015 RMK A01 T01610002  RH  034%=      5-min Rain = 0
KVA1 141940Z 17005KT 16/01 A3015 RMK A01 T01630006  RH  035%=      5-min Rain = 0
KVA1 141941Z 17005KT 17/01 A3015 RMK A01 T01660007  RH  034%=      5-min Rain = 0
KVA1 141942Z 17003KT 17/01 A3015 RMK A01 T01680005  RH  033%=      5-min Rain = 0
KVA1 141943Z 17008KT 17/00 A3015 RMK A01 T01680004  RH  033%=      5-min Rain = 0
KVA1 141944Z 18007KT 17/00 A3015 RMK A01 T01680004  RH  033%=      5-min Rain = 0
KVA1 141945Z 16006KT 17/00 A3015 RMK A01 T01670004  RH  033%=      5-min Rain = 0
KVA1 141946Z 17008KT 17/00 A3015 RMK A01 T01660001  RH  033%=      5-min Rain = 0
KVA1 141947Z 17007KT 16/00 A3015 RMK A01 T01640001  RH  033%=      5-min Rain = 0
KVA1 141948Z 18006KT 16/00 A3015 RMK A01 T01640002  RH  033%=      5-min Rain = 0
KVA1 141949Z 20006KT 17/00 A3015 RMK A01 T01650003  RH  033%=      5-min Rain = 0
KVA1 141950Z 20006KT 17/00 A3015 RMK A01 T01650002  RH  033%=      5-min Rain = 0
KVA1 141951Z 17006KT 16/00 A3015 RMK A01 T01640003  RH  033%=      5-min Rain = 0
KVA1 141952Z 16005KT 17/00 A3014 RMK A01 T016500-0  RH  033%=      5-min Rain = 0
KVA1 141953Z 16007KT 17/00 A3014 RMK A01 T01650004  RH  033%=      5-min Rain = 0
KVA1 141954Z 17008KT 17/01 A3014 RMK A01 T01690006  RH  033%=      5-min Rain = 0
KVA1 141955Z 18009KT 17/01 A3014 RMK A01 T01710005  RH  032%=      5-min Rain = 0
KVA1 141956Z 20008KT 17/00 A3014 RMK A01 T01720004  RH  032%=      5-min Rain = 0
KVA1 141957Z 18005KT 17/00 A3014 RMK A01 T01710004  RH  032%=      5-min Rain = 0
KVA1 141958Z 16007KT 17/00 A3014 RMK A01 T01700002  RH  032%=      5-min Rain = 0
KVA1 141959Z 15008KT 17/00 A3014 RMK A01 T01710001  RH  032%=      5-min Rain = 0
KVA1 142000Z 15007KT 17/00 A3014 RMK A01 T017000-0  RH  031%=      5-min Rain = 0
KVA1 142001Z 18010KT 17/00 A3014 RMK A01 T01700001  RH  032%=      5-min Rain = 0
KVA1 142002Z 20008KT 17/00 A3014 RMK A01 T01700002  RH  032%=      5-min Rain = 0
KVA1 142003Z 22008KT 17/00 A3014 RMK A01 T01710002  RH  032%=      5-min Rain = 0
KVA1 142004Z 23006KT 17/00 A3013 RMK A01 T01690002  RH  032%=      5-min Rain = 0
KVA1 142005Z 20006KT 17/00 A3013 RMK A01 T01690001  RH  032%=      5-min Rain = 0
KVA1 142006Z 17009KT 17/00 A3013 RMK A01 T01710003  RH  032%=      5-min Rain = 0
KVA1 142007Z 17010KT 17/00 A3013 RMK A01 T01730002  RH  031%=      5-min Rain = 0
KVA1 142008Z 17008KT 17/00 A3013 RMK A01 T01730001  RH  031%=      5-min Rain = 0
KVA1 142009Z 17004KT 17/00 A3013 RMK A01 T01730000  RH  031%=      5-min Rain = 0
KVA1 142010Z 18003KT 17/M00 A3013 RMK A01 T01721001  RH  031%=      5-min Rain = 0
KVA1 142011Z 19006KT 17/00 A3013 RMK A01 T01710002  RH  032%=      5-min Rain = 0
KVA1 142012Z 20010KT 17/01 A3013 RMK A01 T01730005  RH  032%=      5-min Rain = 0
KVA1 142013Z 19009KT 18/00 A3013 RMK A01 T01750002  RH  031%=      5-min Rain = 0
KVA1 142014Z 18004KT 17/M00 A3013 RMK A01 T01731001  RH  031%=      5-min Rain = 0
KVA1 142015Z 20006KT 17/00 A3013 RMK A01 T01720002  RH  032%=      5-min Rain = 0
KVA1 142016Z 19007KT 17/00 A3013 RMK A01 T01730002  RH  031%=      5-min Rain = 0
KVA1 142017Z 16005KT 17/00 A3013 RMK A01 T01730000  RH  031%=      5-min Rain = 0
KVA1 142018Z 16003KT 17/00 A3013 RMK A01 T01730000  RH  031%=      5-min Rain = 0
KVA1 142019Z 18005KT 17/00 A3012 RMK A01 T01740002  RH  031%=      5-min Rain = 0
KVA1 142020Z 17008KT 18/00 A3012 RMK A01 T01760001  RH  031%=      5-min Rain = 0
KVA1 142021Z 18008KT 18/00 A3012 RMK A01 T01760002  RH  031%=      5-min Rain = 0
KVA1 142022Z 19007KT 18/00 A3012 RMK A01 T01760001  RH  031%=      5-min Rain = 0
KVA1 142023Z 18008KT 18/00 A3012 RMK A01 T01760002  RH  031%=      5-min Rain = 0
KVA1 142024Z 20011KT 18/00 A3012 RMK A01 T01770001  RH  030%=      5-min Rain = 0
KVA1 142025Z 20008KT 18/00 A3012 RMK A01 T01760001  RH  030%=      5-min Rain = 0
KVA1 142026Z 21006KT 18/M00 A3012 RMK A01 T01751002  RH  030%=      5-min Rain = 0
KVA1 142027Z 21005KT 17/M00 A3012 RMK A01 T01731001  RH  031%=      5-min Rain = 0
KVA1 142028Z 22005KT 17/M00 A3012 RMK A01 T01721003  RH  030%=      5-min Rain = 0
KVA1 142029Z 21003KT 17/M00 A3012 RMK A01 T01711004  RH  030%=      5-min Rain = 0
KVA1 142030Z 21005KT 17/M00 A3012 RMK A01 T01711003  RH  031%=      5-min Rain = 0
KVA1 142031Z 19006KT 17/00 A3011 RMK A01 T017300-0  RH  031%=      5-min Rain = 0
KVA1 142032Z 18010KT 18/00 A3011 RMK A01 T017600-0  RH  030%=      5-min Rain = 0
KVA1 142033Z 20012KT 18/M00 A3011 RMK A01 T01771002  RH  030%=      5-min Rain = 0
KVA1 142034Z 19009KT 18/M00 A3011 RMK A01 T01771001  RH  030%=      5-min Rain = 0
KVA1 142035Z 17006KT 18/M00 A3011 RMK A01 T01771001  RH  030%=      5-min Rain = 0
KVA1 142036Z 18008KT 18/M00 A3011 RMK A01 T01781002  RH  030%=      5-min Rain = 0
KVA1 142037Z 18008KT 18/M00 A3011 RMK A01 T01771004  RH  029%=      5-min Rain = 0
KVA1 142038Z 18005KT 18/M01 A3011 RMK A01 T01751006  RH  029%=      5-min Rain = 0
KVA1 142039Z 17006KT 18/M00 A3011 RMK A01 T01751004  RH  030%=      5-min Rain = 0
KVA1 142040Z 16007KT 18/M00 A3011 RMK A01 T01771002  RH  030%=      5-min Rain = 0
KVA1 142041Z 18010KT 18/00 A3011 RMK A01 T01820001  RH  029%=      5-min Rain = 0
KVA1 142042Z 18011KT 18/M00 A3011 RMK A01 T01841002  RH  028%=      5-min Rain = 0
KVA1 142043Z 19010KT 19/M00 A3011 RMK A01 T01851002  RH  028%=      5-min Rain = 0
KVA1 142044Z 17012KT 18/M01 A3011 RMK A01 T01831005  RH  028%=      5-min Rain = 0
KVA1 142045Z 17012KT 18/M00 A301 RMK A01 T01821004  RH  028%=      5-min Rain = 0
KVA1 142046Z 17009KT 18/M01 A301 RMK A01 T01811006  RH  028%=      5-min Rain = 0
KVA1 142047Z 16008KT 18/M01 A301 RMK A01 T01811006  RH  028%=      5-min Rain = 0
KVA1 142048Z 18010KT 18/M01 A301 RMK A01 T01811008  RH  028%=      5-min Rain = 0
KVA1 142049Z 16011KT 18/M01 A301 RMK A01 T01811006  RH  028%=      5-min Rain = 0
KVA1 142050Z 17013KT 18/M01 A301 RMK A01 T01831008  RH  027%=      5-min Rain = 0
KVA1 142051Z 16012KT 18/M01 A301 RMK A01 T01841007  RH  027%=      5-min Rain = 0
KVA1 142052Z 18008KT 19/M01 A301 RMK A01 T01861005  RH  028%=      5-min Rain = 0
KVA1 142053Z 19009KT 19/M01 A301 RMK A01 T01861005  RH  027%=      5-min Rain = 0
KVA1 142054Z 18008KT 19/M01 A301 RMK A01 T01861005  RH  028%=      5-min Rain = 0
KVA1 142055Z 17007KT 19/M01 A301 RMK A01 T01851006  RH  027%=      5-min Rain = 0
KVA1 142056Z 17008KT 19/M01 A301 RMK A01 T01851005  RH  028%=      5-min Rain = 0
KVA1 142057Z 16008G14KT 19/M01 A301 RMK A01 T01871005  RH  027%=      5-min Rain = 0
KVA1 142058Z 17010KT 19/M00 A301 RMK A01 T01891004  RH  027%=      5-min Rain = 0
KVA1 142059Z 17011KT 19/M00 A301 RMK A01 T01921002  RH  027%=      5-min Rain = 0
KVA1 142100Z 17011KT 19/M01 A301 RMK A01 T01931005  RH  026%=      5-min Rain = 0
KVA1 142101Z 18012KT 19/M01 A301 RMK A01 T01921006  RH  026%=      5-min Rain = 0
KVA1 142102Z 17013KT 19/M01 A301 RMK A01 T01901007  RH  026%=      5-min Rain = 0
KVA1 142103Z 16009KT 19/M01 A301 RMK A01 T01881009  RH  026%=      5-min Rain = 0
KVA1 142104Z 17009KT 19/M01 A301 RMK A01 T01891006  RH  027%=      5-min Rain = 0
KVA1 142105Z 17011KT 19/M01 A301 RMK A01 T01911007  RH  026%=      5-min Rain = 0
KVA1 142106Z 16010KT 19/M01 A301 RMK A01 T01911007  RH  026%=      5-min Rain = 0
KVA1 142107Z 17010KT 19/M01 A3009 RMK A01 T01911008  RH  026%=      5-min Rain = 0
KVA1 142108Z 18013KT 19/M01 A3009 RMK A01 T01921006  RH  026%=      5-min Rain = 0
KVA1 142109Z 17014KT 19/M01 A3009 RMK A01 T01931009  RH  026%=      5-min Rain = 0
KVA1 142110Z 18013KT 19/M02 A3009 RMK A01 T01911015  RH  025%=      5-min Rain = 0
KVA1 142111Z 17013KT 19/M01 A3009 RMK A01 T01901014  RH  025%=      5-min Rain = 0
KVA1 142112Z 18012KT 19/M01 A3009 RMK A01 T01901013  RH  025%=      5-min Rain = 0
KVA1 142113Z 18012KT 19/M01 A3009 RMK A01 T01911010  RH  026%=      5-min Rain = 0
KVA1 142114Z 18012KT 19/M01 A3009 RMK A01 T01931012  RH  025%=      5-min Rain = 0
KVA1 142115Z 19012KT 19/M01 A3009 RMK A01 T01931012  RH  025%=      5-min Rain = 0
KVA1 142116Z 19012KT 19/M01 A3009 RMK A01 T01911013  RH  025%=      5-min Rain = 0
KVA1 142117Z 19010KT 19/M01 A3009 RMK A01 T01901013  RH  025%=      5-min Rain = 0
KVA1 142118Z 19011KT 19/M01 A3009 RMK A01 T01901009  RH  026%=      5-min Rain = 0
KVA1 142119Z 19009KT 19/M01 A3009 RMK A01 T01901009  RH  026%=      5-min Rain = 0
KVA1 142120Z 20012KT 19/M01 A3009 RMK A01 T01901009  RH  026%=      5-min Rain = 0
KVA1 142121Z 20010KT 19/M01 A3009 RMK A01 T01911012  RH  025%=      5-min Rain = 0
KVA1 142122Z 20009G14KT 19/M01 A3009 RMK A01 T01901013  RH  025%=      5-min Rain = 0
KVA1 142123Z 21012KT 19/M01 A3009 RMK A01 T01891012  RH  026%=      5-min Rain = 0
KVA1 142124Z 20010KT 19/M01 A3009 RMK A01 T01881010  RH  026%=      5-min Rain = 0
KVA1 142125Z 20008KT 19/M01 A3009 RMK A01 T01881009  RH  026%=      5-min Rain = 0
KVA1 142126Z 20010G16KT 19/M01 A3009 RMK A01 T01881005  RH  027%=      5-min Rain = 0
KVA1 142127Z 19011KT 19/M00 A3009 RMK A01 T01921003  RH  027%=      5-min Rain = 0
KVA1 142128Z 19009KT 19/M00 A3009 RMK A01 T01921003  RH  027%=      5-min Rain = 0
KVA1 142129Z 19011KT 19/M01 A3009 RMK A01 T01941007  RH  026%=      5-min Rain = 0
KVA1 142130Z 19009KT 19/M01 A3009 RMK A01 T01921010  RH  026%=      5-min Rain = 0
KVA1 142131Z 19006KT 19/M01 A3009 RMK A01 T01911008  RH  026%=      5-min Rain = 0
KVA1 142132Z 19010KT 19/M01 A3009 RMK A01 T01921007  RH  026%=      5-min Rain = 0
KVA1 142133Z 18009KT 19/M01 A3009 RMK A01 T01911010  RH  026%=      5-min Rain = 0
KVA1 142134Z 18007KT 19/M01 A3009 RMK A01 T01901009  RH  026%=      5-min Rain = 0
KVA1 142135Z 17011KT 19/M01 A3009 RMK A01 T01911007  RH  026%=      5-min Rain = 0
KVA1 142136Z 17011KT 19/M01 A3009 RMK A01 T01911005  RH  027%=      5-min Rain = 0
KVA1 142137Z 18008KT 19/M01 A3009 RMK A01 T01921005  RH  027%=      5-min Rain = 0
KVA1 142138Z 18010KT 19/M00 A3009 RMK A01 T01931004  RH  027%=      5-min Rain = 0
KVA1 142139Z 18009KT 19/M01 A3008 RMK A01 T01921005  RH  026%=      5-min Rain = 0
KVA1 142140Z 19010KT 19/M00 A3008 RMK A01 T01931003  RH  027%=      5-min Rain = 0
KVA1 142141Z 17012KT 19/M01 A3008 RMK A01 T01931006  RH  026%=      5-min Rain = 0
KVA1 142142Z 18011KT 19/M01 A3008 RMK A01 T01921007  RH  026%=      5-min Rain = 0
KVA1 142143Z 19013KT 19/M01 A3008 RMK A01 T01921007  RH  026%=      5-min Rain = 0
KVA1 142144Z 19011KT 19/M01 A3008 RMK A01 T01911007  RH  026%=      5-min Rain = 0
KVA1 142145Z 17011KT 19/M01 A3008 RMK A01 T01921005  RH  026%=      5-min Rain = 0
KVA1 142146Z 17012KT 19/M01 A3008 RMK A01 T01941005  RH  026%=      5-min Rain = 0
KVA1 142147Z 17009KT 19/M01 A3008 RMK A01 T01931006  RH  026%=      5-min Rain = 0
KVA1 142148Z 18010KT 19/M01 A3008 RMK A01 T01931005  RH  026%=      5-min Rain = 0
KVA1 142149Z 16011KT 19/M01 A3008 RMK A01 T01941006  RH  026%=      5-min Rain = 0
KVA1 142150Z 17011KT 19/M01 A3008 RMK A01 T01941007  RH  026%=      5-min Rain = 0
KVA1 142151Z 17013KT 19/M01 A3008 RMK A01 T01941006  RH  026%=      5-min Rain = 0
KVA1 142152Z 17009KT 19/M01 A3008 RMK A01 T01931009  RH  026%=      5-min Rain = 0
KVA1 142153Z 20009KT 19/M01 A3008 RMK A01 T01911006  RH  027%=      5-min Rain = 0
KVA1 142154Z 19009KT 19/M01 A3008 RMK A01 T01901006  RH  027%=      5-min Rain = 0
KVA1 142155Z 18011KT 19/M01 A3008 RMK A01 T01891006  RH  027%=      5-min Rain = 0
KVA1 142156Z 17011KT 19/M01 A3008 RMK A01 T01901005  RH  027%=      5-min Rain = 0
KVA1 142157Z 18011KT 19/M01 A3008 RMK A01 T01911006  RH  026%=      5-min Rain = 0
KVA1 142158Z 18011KT 19/M01 A3008 RMK A01 T01901007  RH  026%=      5-min Rain = 0
KVA1 142159Z 18012KT 19/M01 A3008 RMK A01 T01911006  RH  027%=      5-min Rain = 0
KVA1 142200Z 18011KT 19/M01 A3008 RMK A01 T01911006  RH  027%=      5-min Rain = 0
KVA1 142201Z 18008KT 19/M01 A3008 RMK A01 T01911008  RH  026%=      5-min Rain = 0
KVA1 142202Z 18007KT 19/M01 A3008 RMK A01 T01891008  RH  027%=      5-min Rain = 0
KVA1 142203Z 17006KT 19/M01 A3008 RMK A01 T01891007  RH  027%=      5-min Rain = 0
KVA1 142204Z 17008KT 19/M00 A3008 RMK A01 T01891004  RH  027%=      5-min Rain = 0
KVA1 142205Z 17008KT 19/M01 A3008 RMK A01 T01901006  RH  027%=      5-min Rain = 0
KVA1 142206Z 16008KT 19/M00 A3008 RMK A01 T01901004  RH  027%=      5-min Rain = 0
KVA1 142207Z 16010KT 19/M00 A3008 RMK A01 T01931002  RH  027%=      5-min Rain = 0
KVA1 142208Z 15011KT 19/M01 A3008 RMK A01 T01941005  RH  026%=      5-min Rain = 0
KVA1 142209Z 18009KT 19/M01 A3008 RMK A01 T01941005  RH  026%=      5-min Rain = 0
KVA1 142210Z 19008KT 19/M00 A3008 RMK A01 T01941004  RH  026%=      5-min Rain = 0
KVA1 142211Z 19009KT 19/M01 A3007 RMK A01 T01941005  RH  026%=      5-min Rain = 0
KVA1 142212Z 18012KT 20/M00 A3008 RMK A01 T01951003  RH  026%=      5-min Rain = 0
KVA1 142213Z 17012KT 20/M00 A3007 RMK A01 T01961003  RH  026%=      5-min Rain = 0
KVA1 142214Z 17011KT 20/M01 A3008 RMK A01 T01951006  RH  026%=      5-min Rain = 0
KVA1 142215Z 17010KT 19/M01 A3007 RMK A01 T01941007  RH  026%=      5-min Rain = 0
KVA1 142216Z 17009KT 19/M01 A3007 RMK A01 T01931006  RH  026%=      5-min Rain = 0
KVA1 142217Z 16008KT 19/M01 A3007 RMK A01 T01931006  RH  026%=      5-min Rain = 0
KVA1 142218Z 17010KT 19/M01 A3007 RMK A01 T01931005  RH  026%=      5-min Rain = 0
KVA1 142219Z 17010KT 19/M00 A3007 RMK A01 T01941004  RH  026%=      5-min Rain = 0
KVA1 142220Z 16011KT 20/M01 A3007 RMK A01 T01951005  RH  026%=      5-min Rain = 0
KVA1 142221Z 17012KT 20/M01 A3007 RMK A01 T01951006  RH  026%=      5-min Rain = 0
KVA1 142222Z 17011KT 19/M01 A3007 RMK A01 T01941007  RH  026%=      5-min Rain = 0
KVA1 142223Z 18012KT 19/M01 A3007 RMK A01 T01941005  RH  026%=      5-min Rain = 0
KVA1 142224Z 19011KT 19/M01 A3007 RMK A01 T01931006  RH  026%=      5-min Rain = 0
KVA1 142225Z 18009KT 19/M01 A3007 RMK A01 T01931005  RH  026%=      5-min Rain = 0
KVA1 142226Z 19010KT 19/M01 A3007 RMK A01 T01931005  RH  026%=      5-min Rain = 0
KVA1 142227Z 18010KT 19/M01 A3007 RMK A01 T01911009  RH  026%=      5-min Rain = 0
KVA1 142228Z 16007KT 19/M01 A3007 RMK A01 T01891008  RH  026%=      5-min Rain = 0
KVA1 142229Z 18006KT 19/M01 A3007 RMK A01 T01891006  RH  027%=      5-min Rain = 0
KVA1 142230Z 18010KT 19/M00 A3007 RMK A01 T01911003  RH  027%=      5-min Rain = 0
KVA1 142231Z 18010KT 19/M00 A3007 RMK A01 T01941003  RH  027%=      5-min Rain = 0
KVA1 142232Z 18009KT 19/M01 A3007 RMK A01 T01941005  RH  026%=      5-min Rain = 0
KVA1 142233Z 17013KT 19/M01 A3007 RMK A01 T01931006  RH  026%=      5-min Rain = 0
KVA1 142234Z 17014KT 19/M01 A3007 RMK A01 T01931006  RH  026%=      5-min Rain = 0
KVA1 142235Z 18012KT 19/M01 A3007 RMK A01 T01941008  RH  026%=      5-min Rain = 0
KVA1 142236Z 16011KT 19/M01 A3007 RMK A01 T01931009  RH  026%=      5-min Rain = 0
KVA1 142237Z 17011KT 19/M01 A3007 RMK A01 T01941006  RH  026%=      5-min Rain = 0
KVA1 142238Z 18008KT 20/M01 A3007 RMK A01 T01951007  RH  026%=      5-min Rain = 0
KVA1 142239Z 19009KT 19/M01 A3007 RMK A01 T01941007  RH  026%=      5-min Rain = 0
KVA1 142240Z 18007KT 19/M01 A3007 RMK A01 T01931006  RH  026%=      5-min Rain = 0
KVA1 142241Z 17011KT 19/M00 A3007 RMK A01 T01941004  RH  026%=      5-min Rain = 0
KVA1 142242Z 17009KT 19/M01 A3007 RMK A01 T01941007  RH  026%=      5-min Rain = 0
KVA1 142243Z 17008G14KT 20/M01 A3007 RMK A01 T01951005  RH  026%=      5-min Rain = 0
KVA1 142244Z 16013KT 20/M01 A3006 RMK A01 T01961007  RH  026%=      5-min Rain = 0
KVA1 142245Z 16011KT 20/M01 A3007 RMK A01 T01961008  RH  025%=      5-min Rain = 0
KVA1 142246Z 16011KT 20/M01 A3006 RMK A01 T01951008  RH  025%=      5-min Rain = 0
KVA1 142247Z 18009KT 20/M01 A3006 RMK A01 T01951008  RH  025%=      5-min Rain = 0
KVA1 142248Z 18009KT 20/M01 A3006 RMK A01 T01951007  RH  026%=      5-min Rain = 0
KVA1 142249Z 19010KT 20/M01 A3006 RMK A01 T01951008  RH  026%=      5-min Rain = 0
KVA1 142250Z 18010KT 19/M01 A3006 RMK A01 T01941008  RH  025%=      5-min Rain = 0
KVA1 142251Z 17009KT 19/M01 A3006 RMK A01 T01941007  RH  026%=      5-min Rain = 0
KVA1 142252Z 17007KT 19/M01 A3007 RMK A01 T01941008  RH  026%=      5-min Rain = 0
KVA1 142253Z 17009KT 19/M01 A3007 RMK A01 T01941007  RH  026%=      5-min Rain = 0
KVA1 142254Z 18009KT 20/M01 A3007 RMK A01 T01951008  RH  025%=      5-min Rain = 0
KVA1 142255Z 19010KT 20/M01 A3007 RMK A01 T01951008  RH  025%=      5-min Rain = 0
KVA1 142256Z 19009KT 20/M01 A3007 RMK A01 T01951007  RH  026%=      5-min Rain = 0
KVA1 142257Z 19008KT 19/M01 A3007 RMK A01 T01941006  RH  026%=      5-min Rain = 0
KVA1 142258Z 20008KT 19/M01 A3007 RMK A01 T01941006  RH  026%=      5-min Rain = 0
KVA1 142259Z 19009KT 20/M01 A3007 RMK A01 T01951007  RH  026%=      5-min Rain = 0
KVA1 142300Z 18011KT 19/M01 A3007 RMK A01 T01941011  RH  025%=      5-min Rain = 0
KVA1 142301Z 18009KT 19/M01 A3007 RMK A01 T01921012  RH  025%=      5-min Rain = 0
KVA1 142302Z 18009KT 19/M01 A3007 RMK A01 T01921010  RH  026%=      5-min Rain = 0
KVA1 142303Z 18010KT 19/M01 A3007 RMK A01 T01921009  RH  026%=      5-min Rain = 0
KVA1 142304Z 18009KT 19/M01 A3007 RMK A01 T01931009  RH  026%=      5-min Rain = 0
KVA1 142305Z 19009KT 19/M01 A3007 RMK A01 T01931010  RH  025%=      5-min Rain = 0
KVA1 142306Z 17008KT 19/M01 A3007 RMK A01 T01911010  RH  026%=      5-min Rain = 0
KVA1 142307Z 16009KT 19/M01 A3007 RMK A01 T01921008  RH  026%=      5-min Rain = 0
KVA1 142308Z 16009KT 19/M01 A3007 RMK A01 T01931013  RH  025%=      5-min Rain = 0
KVA1 142309Z 18009KT 19/M01 A3007 RMK A01 T01941011  RH  025%=      5-min Rain = 0
KVA1 142310Z 18008KT 19/M02 A3007 RMK A01 T01941016  RH  024%=      5-min Rain = 0
KVA1 142311Z 18008KT 19/M02 A3007 RMK A01 T01941015  RH  024%=      5-min Rain = 0
KVA1 142312Z 18010KT 19/M02 A3007 RMK A01 T01941015  RH  024%=      5-min Rain = 0
KVA1 142313Z 18008KT 19/M02 A3007 RMK A01 T01941017  RH  024%=      5-min Rain = 0
KVA1 142314Z 19009KT 19/M02 A3007 RMK A01 T01941017  RH  024%=      5-min Rain = 0
KVA1 142315Z 18007KT 19/M02 A3007 RMK A01 T01931017  RH  024%=      5-min Rain = 0
KVA1 142316Z 17009KT 19/M02 A3007 RMK A01 T01931016  RH  024%=      5-min Rain = 0
KVA1 142317Z 17010KT 19/M02 A3007 RMK A01 T01941016  RH  024%=      5-min Rain = 0
KVA1 142318Z 17010KT 19/M02 A3007 RMK A01 T01941018  RH  024%=      5-min Rain = 0
KVA1 142319Z 17008KT 19/M02 A3007 RMK A01 T01941021  RH  023%=      5-min Rain = 0
KVA1 142320Z 17011KT 19/M02 A3007 RMK A01 T01931020  RH  024%=      5-min Rain = 0
KVA1 142321Z 19010KT 19/M02 A3007 RMK A01 T01931021  RH  023%=      5-min Rain = 0
KVA1 142322Z 21007KT 19/M02 A3007 RMK A01 T01931019  RH  024%=      5-min Rain = 0
KVA1 142323Z 21008G15KT 19/M02 A3007 RMK A01 T01931017  RH  024%=      5-min Rain = 0
KVA1 142324Z 21007KT 19/M02 A3007 RMK A01 T01921021  RH  024%=      5-min Rain = 0
KVA1 142325Z 20010KT 19/M02 A3007 RMK A01 T01931021  RH  024%=      5-min Rain = 0
KVA1 142326Z 18013KT 19/M02 A3007 RMK A01 T01931020  RH  024%=      5-min Rain = 0
KVA1 142327Z 19008KT 19/M02 A3007 RMK A01 T01921019  RH  024%=      5-min Rain = 0
KVA1 142328Z 21007KT 19/M02 A3007 RMK A01 T01921017  RH  024%=      5-min Rain = 0
KVA1 142329Z 21006KT 19/M02 A3007 RMK A01 T01921016  RH  024%=      5-min Rain = 0
KVA1 142330Z 20009KT 19/M01 A3007 RMK A01 T01931014  RH  025%=      5-min Rain = 0
KVA1 142331Z 23008KT 19/M01 A3007 RMK A01 T01921009  RH  026%=      5-min Rain = 0
KVA1 142332Z 22007KT 19/M01 A3007 RMK A01 T01921007  RH  026%=      5-min Rain = 0
KVA1 142333Z 19007KT 19/M01 A3007 RMK A01 T01921008  RH  026%=      5-min Rain = 0
KVA1 142334Z 22008KT 19/M01 A3007 RMK A01 T01921008  RH  026%=      5-min Rain = 0
KVA1 142335Z 23007KT 19/M01 A3007 RMK A01 T01921007  RH  026%=      5-min Rain = 0
KVA1 142336Z 21007KT 19/M01 A3007 RMK A01 T01911007  RH  026%=      5-min Rain = 0
KVA1 142337Z 21008KT 19/M01 A3007 RMK A01 T01911008  RH  026%=      5-min Rain = 0
KVA1 142338Z 20007KT 19/M01 A3007 RMK A01 T01911009  RH  026%=      5-min Rain = 0
KVA1 142339Z 19006KT 19/M01 A3007 RMK A01 T01911009  RH  026%=      5-min Rain = 0
KVA1 142340Z 21006KT 19/M01 A3007 RMK A01 T01911006  RH  026%=      5-min Rain = 0
KVA1 142341Z 23006KT 19/M01 A3007 RMK A01 T01911007  RH  026%=      5-min Rain = 0
KVA1 142342Z 21008KT 19/M01 A3007 RMK A01 T01911010  RH  026%=      5-min Rain = 0
KVA1 142343Z 19010KT 19/M01 A3007 RMK A01 T01911014  RH  025%=      5-min Rain = 0
KVA1 142344Z 19009KT 19/M02 A3007 RMK A01 T01911018  RH  024%=      5-min Rain = 0
KVA1 142345Z 19012KT 19/M02 A3007 RMK A01 T01921023  RH  023%=      5-min Rain = 0
KVA1 142346Z 18011KT 19/M03 A3007 RMK A01 T01911028  RH  022%=      5-min Rain = 0
KVA1 142347Z 19010KT 19/M03 A3007 RMK A01 T01911026  RH  023%=      5-min Rain = 0
KVA1 142348Z 18009KT 19/M03 A3007 RMK A01 T01911026  RH  023%=      5-min Rain = 0
KVA1 142349Z 18011KT 19/M03 A3007 RMK A01 T01901025  RH  023%=      5-min Rain = 0
KVA1 142350Z 19010KT 19/M02 A3007 RMK A01 T01911019  RH  024%=      5-min Rain = 0
KVA1 142351Z 21006KT 19/M01 A3007 RMK A01 T01901009  RH  026%=      5-min Rain = 0
KVA1 142352Z 20008KT 19/M01 A3007 RMK A01 T01891007  RH  027%=      5-min Rain = 0
KVA1 142353Z 20007KT 19/M01 A3007 RMK A01 T01891010  RH  026%=      5-min Rain = 0
KVA1 142354Z 21007KT 19/M01 A3007 RMK A01 T01881006  RH  027%=      5-min Rain = 0
KVA1 142355Z 20008KT 19/M00 A3007 RMK A01 T01881003  RH  027%=      5-min Rain = 0
KVA1 142356Z 20007KT 19/M01 A3007 RMK A01 T01881005  RH  027%=      5-min Rain = 0
KVA1 142357Z 20007KT 19/M00 A3007 RMK A01 T01871003  RH  028%=      5-min Rain = 0
KVA1 142358Z 21009KT 19/M00 A3007 RMK A01 T01861004  RH  028%=      5-min Rain = 0
KVA1 142359Z 22008KT 19/M01 A3007 RMK A01 T01851005  RH  028%=      5-min Rain = 0
KVA1 150000Z 21008KT 19/M01 A3007 RMK A01 T01851005  RH  028%=      5-min Rain = 0
KVA1 150001Z 21008KT 18/M00 A3007 RMK A01 T01841003  RH  028%=      5-min Rain = 0
KVA1 150002Z 21007KT 18/M00 A3007 RMK A01 T01841001  RH  029%=      5-min Rain = 0
KVA1 150003Z 21011KT 18/M00 A3007 RMK A01 T01841002  RH  028%=      5-min Rain = 0
KVA1 150004Z 21010KT 18/M00 A3007 RMK A01 T01841003  RH  028%=      5-min Rain = 0
KVA1 150005Z 22008KT 18/M00 A3007 RMK A01 T01831003  RH  029%=      5-min Rain = 0
KVA1 150006Z 22008KT 18/M00 A3007 RMK A01 T01831001  RH  029%=      5-min Rain = 0
KVA1 150007Z 21007KT 18/M00 A3007 RMK A01 T01831001  RH  029%=      5-min Rain = 0
KVA1 150008Z 21007KT 18/00 A3007 RMK A01 T01820001  RH  029%=      5-min Rain = 0
KVA1 150009Z 22010KT 18/00 A3007 RMK A01 T018200-0  RH  029%=      5-min Rain = 0
KVA1 150010Z 21008KT 18/M00 A3007 RMK A01 T01821002  RH  029%=      5-min Rain = 0
KVA1 150011Z 21009KT 18/M00 A3007 RMK A01 T01821002  RH  029%=      5-min Rain = 0
KVA1 150012Z 22009KT 18/M00 A3007 RMK A01 T01811002  RH  029%=      5-min Rain = 0
KVA1 150013Z 22010KT 18/M00 A3007 RMK A01 T01811002  RH  029%=      5-min Rain = 0
KVA1 150014Z 22009KT 18/M00 A3007 RMK A01 T01801002  RH  029%=      5-min Rain = 0
KVA1 150015Z 21009KT 18/M00 A3007 RMK A01 T01791002  RH  029%=      5-min Rain = 0
KVA1 150016Z 21010KT 18/M00 A3007 RMK A01 T01791002  RH  029%=      5-min Rain = 0
KVA1 150017Z 21010KT 18/M00 A3007 RMK A01 T01781003  RH  029%=      5-min Rain = 0
KVA1 150018Z 21008KT 18/M00 A3007 RMK A01 T01771002  RH  030%=      5-min Rain = 0
KVA1 150019Z 22007KT 18/M00 A3007 RMK A01 T01761002  RH  030%=      5-min Rain = 0
KVA1 150020Z 22008KT 18/M00 A3007 RMK A01 T01761001  RH  030%=      5-min Rain = 0
KVA1 150021Z 21008KT 18/M00 A3007 RMK A01 T01751001  RH  030%=      5-min Rain = 0
KVA1 150022Z 21008KT 18/M00 A3007 RMK A01 T01751001  RH  030%=      5-min Rain = 0
KVA1 150023Z 21006KT 18/M00 A3007 RMK A01 T01751001  RH  030%=      5-min Rain = 0
KVA1 150024Z 21007KT 17/M00 A3007 RMK A01 T01741001  RH  031%=      5-min Rain = 0
KVA1 150025Z 22008KT 17/M00 A3007 RMK A01 T01741001  RH  031%=      5-min Rain = 0
KVA1 150026Z 22007KT 17/M00 A3007 RMK A01 T01731001  RH  031%=      5-min Rain = 0
KVA1 150027Z 22008KT 17/M00 A3007 RMK A01 T01731001  RH  031%=      5-min Rain = 0
KVA1 150028Z 22007KT 17/00 A3007 RMK A01 T017200-0  RH  031%=      5-min Rain = 0
KVA1 150029Z 21007KT 17/M00 A3007 RMK A01 T01711001  RH  031%=      5-min Rain = 0
KVA1 150030Z 21007KT 17/00 A3007 RMK A01 T017000-0  RH  031%=      5-min Rain = 0
KVA1 150031Z 20006KT 17/00 A3007 RMK A01 T01700001  RH  032%=      5-min Rain = 0
KVA1 150032Z 20006KT 17/00 A3007 RMK A01 T01690001  RH  032%=      5-min Rain = 0
KVA1 150033Z 21006KT 17/00 A3007 RMK A01 T01680001  RH  032%=      5-min Rain = 0
KVA1 150034Z 21005KT 17/00 A3007 RMK A01 T01670002  RH  033%=      5-min Rain = 0
KVA1 150035Z 22005KT 17/00 A3007 RMK A01 T01660002  RH  033%=      5-min Rain = 0
KVA1 150036Z 22005KT 17/00 A3007 RMK A01 T01650002  RH  033%=      5-min Rain = 0
KVA1 150037Z 21004KT 16/00 A3007 RMK A01 T01640003  RH  034%=      5-min Rain = 0
KVA1 150038Z 22004KT 16/00 A3007 RMK A01 T01630004  RH  034%=      5-min Rain = 0
KVA1 150039Z 22003KT 16/00 A3007 RMK A01 T01610004  RH  034%=      5-min Rain = 0
KVA1 150040Z 23003KT 16/00 A3007 RMK A01 T01610004  RH  034%=      5-min Rain = 0
KVA1 150041Z 23003KT 16/01 A3007 RMK A01 T01600005  RH  035%=      5-min Rain = 0
KVA1 150042Z 23003KT 16/01 A3007 RMK A01 T01590005  RH  035%=      5-min Rain = 0
KVA1 150043Z 24003KT 16/01 A3007 RMK A01 T01580006  RH  035%=      5-min Rain = 0
KVA1 150044Z 24003KT 16/01 A3007 RMK A01 T01580006  RH  036%=      5-min Rain = 0
KVA1 150045Z 23003KT 16/00 A3007 RMK A01 T01560004  RH  036%=      5-min Rain = 0
KVA1 150046Z 23003KT 16/01 A3007 RMK A01 T01550005  RH  036%=      5-min Rain = 0
KVA1 150047Z 23003KT 15/01 A3008 RMK A01 T01540005  RH  036%=      5-min Rain = 0
KVA1 150048Z 23003KT 15/01 A3008 RMK A01 T01540005  RH  036%=      5-min Rain = 0
KVA1 150049Z 23003KT 15/01 A3008 RMK A01 T01540007  RH  037%=      5-min Rain = 0
KVA1 150050Z 22003KT 15/01 A3008 RMK A01 T01530008  RH  037%=      5-min Rain = 0
KVA1 150051Z 22003KT 15/01 A3008 RMK A01 T01520009  RH  038%=      5-min Rain = 0
KVA1 150052Z 22003KT 15/01 A3008 RMK A01 T01510009  RH  038%=      5-min Rain = 0
KVA1 150053Z 21003KT 15/01 A3008 RMK A01 T01490009  RH  038%=      5-min Rain = 0
KVA1 150054Z 21004KT 15/01 A3008 RMK A01 T01480007  RH  038%=      5-min Rain = 0
KVA1 150055Z 21004KT 15/01 A3008 RMK A01 T01480007  RH  038%=      5-min Rain = 0
KVA1 150056Z 21003KT 15/01 A3008 RMK A01 T01470008  RH  039%=      5-min Rain = 0
KVA1 150057Z 20003KT 15/01 A3008 RMK A01 T01460008  RH  039%=      5-min Rain = 0
KVA1 150058Z 20003KT 14/01 A3008 RMK A01 T01440008  RH  039%=      5-min Rain = 0
KVA1 150059Z 19003KT 14/01 A3008 RMK A01 T01430009  RH  040%=      5-min Rain = 0
KVA1 150100Z 19003KT 14/01 A3008 RMK A01 T01420009  RH  040%=      5-min Rain = 0
KVA1 150101Z 19003KT 14/01 A3008 RMK A01 T01410009  RH  041%=      5-min Rain = 0
KVA1 150102Z 19003KT 14/01 A3008 RMK A01 T01400009  RH  041%=      5-min Rain = 0
KVA1 150103Z 20003KT 14/01 A3008 RMK A01 T01410009  RH  041%=      5-min Rain = 0
KVA1 150104Z 21003KT 14/01 A3008 RMK A01 T01410009  RH  041%=      5-min Rain = 0
KVA1 150105Z 21003KT 14/01 A3008 RMK A01 T01400009  RH  041%=      5-min Rain = 0
KVA1 150106Z 21003KT 14/01 A3008 RMK A01 T01400010  RH  041%=      5-min Rain = 0
KVA1 150107Z 21004KT 14/01 A3008 RMK A01 T01410007  RH  040%=      5-min Rain = 0
KVA1 150108Z 22004KT 14/01 A3008 RMK A01 T01400010  RH  041%=      5-min Rain = 0
KVA1 150109Z 22004KT 14/01 A3008 RMK A01 T01400013  RH  042%=      5-min Rain = 0
KVA1 150110Z 22005KT 14/01 A3009 RMK A01 T01390010  RH  041%=      5-min Rain = 0
KVA1 150111Z 22005KT 14/01 A3009 RMK A01 T01380009  RH  041%=      5-min Rain = 0
KVA1 150112Z 22005KT 14/01 A3009 RMK A01 T01370009  RH  042%=      5-min Rain = 0
KVA1 150113Z 22006KT 14/01 A3009 RMK A01 T01350010  RH  042%=      5-min Rain = 0
KVA1 150114Z 22006KT 14/01 A3009 RMK A01 T01350010  RH  043%=      5-min Rain = 0
KVA1 150115Z 22006KT 13/01 A3009 RMK A01 T01340007  RH  042%=      5-min Rain = 0
KVA1 150116Z 22006KT 13/01 A3009 RMK A01 T01340007  RH  042%=      5-min Rain = 0
KVA1 150117Z 22006KT 13/01 A3009 RMK A01 T01340009  RH  043%=      5-min Rain = 0
KVA1 150118Z 22005KT 13/01 A3009 RMK A01 T01330009  RH  043%=      5-min Rain = 0
KVA1 150119Z 22005KT 13/01 A3009 RMK A01 T01330009  RH  043%=      5-min Rain = 0
KVA1 150120Z 22005KT 13/01 A3009 RMK A01 T01320009  RH  043%=      5-min Rain = 0
KVA1 150121Z 22004KT 13/01 A3009 RMK A01 T01320009  RH  043%=      5-min Rain = 0
KVA1 150122Z 22004KT 13/01 A3009 RMK A01 T01320010  RH  044%=      5-min Rain = 0
KVA1 150123Z 22004KT 13/01 A3009 RMK A01 T01310011  RH  044%=      5-min Rain = 0
KVA1 150124Z 22004KT 13/01 A3009 RMK A01 T01300010  RH  044%=      5-min Rain = 0
KVA1 150125Z 23003KT 13/01 A3009 RMK A01 T01300011  RH  044%=      5-min Rain = 0
KVA1 150126Z 23003KT 13/01 A3009 RMK A01 T01290013  RH  045%=      5-min Rain = 0
KVA1 150127Z 23003KT 13/01 A3009 RMK A01 T01280010  RH  044%=      5-min Rain = 0
KVA1 150128Z 24003KT 13/01 A3009 RMK A01 T01280008  RH  044%=      5-min Rain = 0
KVA1 150129Z 25002KT 13/01 A3009 RMK A01 T01260005  RH  043%=      5-min Rain = 0
KVA1 150130Z 25002KT 13/00 A301 RMK A01 T01260004  RH  043%=      5-min Rain = 0
KVA1 150131Z 26002KT 13/00 A301 RMK A01 T01260004  RH  043%=      5-min Rain = 0
KVA1 150132Z 26002KT 13/00 A301 RMK A01 T01250003  RH  043%=      5-min Rain = 0
KVA1 150133Z 27002KT 13/01 A301 RMK A01 T01250008  RH  045%=      5-min Rain = 0
KVA1 150134Z 27001KT 12/03 A301 RMK A01 T01220025  RH  051%=      5-min Rain = 0
KVA1 150135Z 00000KT 12/01 A301 RMK A01 T01190014  RH  049%=      5-min Rain = 0
KVA1 150136Z 00000KT 12/01 A301 RMK A01 T01170014  RH  049%=      5-min Rain = 0
KVA1 150137Z 06001KT 11/02 A301 RMK A01 T01140024  RH  054%=      5-min Rain = 0
KVA1 150138Z 06004KT 11/03 A301 RMK A01 T01100025  RH  055%=      5-min Rain = 0
KVA1 150139Z 07005KT 11/03 A301 RMK A01 T01090025  RH  056%=      5-min Rain = 0
KVA1 150140Z 08004KT 11/02 A301 RMK A01 T01080021  RH  055%=      5-min Rain = 0
KVA1 150141Z 08004KT 11/02 A301 RMK A01 T01080019  RH  054%=      5-min Rain = 0
KVA1 150142Z 08003KT 11/02 A301 RMK A01 T01090017  RH  053%=      5-min Rain = 0
KVA1 150143Z 08003KT 11/02 A301 RMK A01 T01100018  RH  053%=      5-min Rain = 0
KVA1 150144Z 07003KT 11/02 A301 RMK A01 T01100020  RH  054%=      5-min Rain = 0
KVA1 150145Z 08003KT 11/02 A301 RMK A01 T01100021  RH  054%=      5-min Rain = 0
KVA1 150146Z 09003KT 11/02 A301 RMK A01 T01090021  RH  054%=      5-min Rain = 0
KVA1 150147Z 09003KT 11/02 A301 RMK A01 T01090022  RH  055%=      5-min Rain = 0
KVA1 150148Z 09004KT 11/02 A301 RMK A01 T01080021  RH  055%=      5-min Rain = 0
KVA1 150149Z 09003KT 11/02 A301 RMK A01 T01080021  RH  055%=      5-min Rain = 0
KVA1 150150Z 09003KT 11/02 A301 RMK A01 T01080020  RH  055%=      5-min Rain = 0
KVA1 150151Z 09002KT 11/02 A301 RMK A01 T01090019  RH  054%=      5-min Rain = 0
KVA1 150152Z 08001KT 11/02 A301 RMK A01 T01100024  RH  055%=      5-min Rain = 0
KVA1 150153Z 06001KT 11/02 A301 RMK A01 T01080024  RH  056%=      5-min Rain = 0
KVA1 150154Z 05003KT 11/02 A301 RMK A01 T01080023  RH  056%=      5-min Rain = 0
KVA1 150155Z 04004KT 11/02 A301 RMK A01 T01070024  RH  057%=      5-min Rain = 0
KVA1 150156Z 05006KT 11/03 A301 RMK A01 T01060025  RH  057%=      5-min Rain = 0
KVA1 150157Z 04006KT 11/03 A3011 RMK A01 T01060027  RH  058%=      5-min Rain = 0
KVA1 150158Z 04007KT 11/03 A3011 RMK A01 T01050027  RH  059%=      5-min Rain = 0
KVA1 150159Z 04007KT 10/03 A3011 RMK A01 T01030027  RH  059%=      5-min Rain = 0
KVA1 150200Z 04006KT 10/03 A3011 RMK A01 T01020028  RH  060%=      5-min Rain = 0
KVA1 150201Z 05004KT 10/03 A3011 RMK A01 T01010028  RH  061%=      5-min Rain = 0
KVA1 150202Z 06004KT 10/03 A3011 RMK A01 T01000029  RH  061%=      5-min Rain = 0
KVA1 150203Z 06005KT 10/03 A3011 RMK A01 T00990029  RH  061%=      5-min Rain = 0
KVA1 150204Z 06004KT 10/03 A3011 RMK A01 T00990028  RH  062%=      5-min Rain = 0
KVA1 150205Z 06005KT 10/03 A3011 RMK A01 T00980029  RH  062%=      5-min Rain = 0
KVA1 150206Z 07004KT 10/03 A3011 RMK A01 T00980029  RH  062%=      5-min Rain = 0
KVA1 150207Z 06004KT 10/03 A3011 RMK A01 T00980029  RH  062%=      5-min Rain = 0
KVA1 150208Z 07004KT 10/03 A3011 RMK A01 T00970029  RH  062%=      5-min Rain = 0
KVA1 150209Z 07004KT 10/03 A3011 RMK A01 T00970029  RH  063%=      5-min Rain = 0
KVA1 150210Z 07004KT 10/03 A3011 RMK A01 T00960029  RH  063%=      5-min Rain = 0
KVA1 150211Z 08004KT 10/03 A3011 RMK A01 T00960030  RH  063%=      5-min Rain = 0
KVA1 150212Z 08005KT 10/03 A3011 RMK A01 T00950030  RH  064%=      5-min Rain = 0
KVA1 150213Z 08005KT 10/03 A3011 RMK A01 T00950030  RH  064%=      5-min Rain = 0
KVA1 150214Z 08004KT 10/03 A3011 RMK A01 T00950030  RH  064%=      5-min Rain = 0
KVA1 150215Z 08004KT 09/03 A3011 RMK A01 T00940030  RH  064%=      5-min Rain = 0
KVA1 150216Z 08004KT 09/03 A3011 RMK A01 T00940030  RH  064%=      5-min Rain = 0
KVA1 150217Z 08004KT 09/03 A3011 RMK A01 T00940030  RH  064%=      5-min Rain = 0
KVA1 150218Z 07005KT 09/03 A3011 RMK A01 T00940030  RH  064%=      5-min Rain = 0
KVA1 150219Z 06004KT 09/03 A3011 RMK A01 T00940030  RH  064%=      5-min Rain = 0
KVA1 150220Z 03004KT 09/03 A3011 RMK A01 T00940031  RH  064%=      5-min Rain = 0
KVA1 150221Z 01006KT 09/03 A3012 RMK A01 T00940031  RH  065%=      5-min Rain = 0
KVA1 150222Z 36006KT 09/03 A3012 RMK A01 T00930031  RH  065%=      5-min Rain = 0
KVA1 150223Z 01005KT 09/03 A3012 RMK A01 T00910032  RH  066%=      5-min Rain = 0
KVA1 150224Z 02005KT 09/03 A3012 RMK A01 T00900031  RH  066%=      5-min Rain = 0
KVA1 150225Z 01005KT 09/03 A3012 RMK A01 T00910032  RH  067%=      5-min Rain = 0
KVA1 150226Z 01004KT 09/03 A3012 RMK A01 T00900031  RH  067%=      5-min Rain = 0
KVA1 150227Z 02004KT 09/03 A3012 RMK A01 T00900032  RH  067%=      5-min Rain = 0
KVA1 150228Z 02004KT 09/03 A3012 RMK A01 T00890032  RH  068%=      5-min Rain = 0
KVA1 150229Z 01004KT 09/03 A3012 RMK A01 T00890032  RH  068%=      5-min Rain = 0
KVA1 150230Z 01006KT 09/03 A3012 RMK A01 T00880032  RH  068%=      5-min Rain = 0
KVA1 150231Z 01006KT 09/03 A3012 RMK A01 T00870032  RH  068%=      5-min Rain = 0
KVA1 150232Z 00006KT 09/03 A3012 RMK A01 T00860032  RH  069%=      5-min Rain = 0
KVA1 150233Z 00006KT 09/03 A3012 RMK A01 T00860032  RH  069%=      5-min Rain = 0
KVA1 150234Z 01006KT 09/03 A3012 RMK A01 T00860033  RH  069%=      5-min Rain = 0
KVA1 150235Z 01006KT 09/03 A3012 RMK A01 T00860033  RH  070%=      5-min Rain = 0
KVA1 150236Z 01006KT 09/03 A3012 RMK A01 T00850033  RH  070%=      5-min Rain = 0
KVA1 150237Z 02006KT 09/03 A3012 RMK A01 T00850033  RH  070%=      5-min Rain = 0
KVA1 150238Z 02006KT 09/03 A3012 RMK A01 T00850033  RH  070%=      5-min Rain = 0
KVA1 150239Z 02006KT 09/03 A3012 RMK A01 T00850033  RH  070%=      5-min Rain = 0
KVA1 150240Z 02006KT 09/03 A3012 RMK A01 T00850033  RH  070%=      5-min Rain = 0
KVA1 150241Z 02006KT 09/03 A3012 RMK A01 T00850033  RH  070%=      5-min Rain = 0
KVA1 150242Z 01006KT 09/03 A3012 RMK A01 T00850033  RH  070%=      5-min Rain = 0
KVA1 150243Z 02007KT 09/03 A3012 RMK A01 T00850032  RH  070%=      5-min Rain = 0
KVA1 150244Z 02007KT 09/03 A3012 RMK A01 T00850032  RH  069%=      5-min Rain = 0
KVA1 150245Z 02006KT 09/03 A3012 RMK A01 T00850032  RH  069%=      5-min Rain = 0
KVA1 150246Z 02005KT 09/03 A3012 RMK A01 T00850032  RH  069%=      5-min Rain = 0
KVA1 150247Z 02004KT 09/03 A3012 RMK A01 T00860032  RH  069%=      5-min Rain = 0
KVA1 150248Z 02005KT 09/03 A3012 RMK A01 T00860033  RH  069%=      5-min Rain = 0
KVA1 150249Z 02005KT 09/03 A3012 RMK A01 T00850033  RH  070%=      5-min Rain = 0
KVA1 150250Z 02005KT 08/03 A3012 RMK A01 T00840033  RH  070%=      5-min Rain = 0
KVA1 150251Z 01005KT 08/03 A3012 RMK A01 T00840033  RH  071%=      5-min Rain = 0
KVA1 150252Z 01005KT 08/03 A3012 RMK A01 T00830033  RH  071%=      5-min Rain = 0
KVA1 150253Z 01005KT 08/03 A3012 RMK A01 T00820033  RH  071%=      5-min Rain = 0
KVA1 150254Z 01005KT 08/03 A3012 RMK A01 T00820033  RH  071%=      5-min Rain = 0
KVA1 150255Z 01005KT 08/03 A3012 RMK A01 T00820034  RH  072%=      5-min Rain = 0
KVA1 150256Z 00005KT 08/03 A3012 RMK A01 T00810033  RH  072%=      5-min Rain = 0
KVA1 150257Z 01005KT 08/03 A3012 RMK A01 T00810034  RH  072%=      5-min Rain = 0
KVA1 150258Z 00005KT 08/03 A3012 RMK A01 T00810033  RH  072%=      5-min Rain = 0
KVA1 150259Z 01005KT 08/03 A3012 RMK A01 T00810033  RH  072%=      5-min Rain = 0
KVA1 150300Z 00004KT 08/03 A3012 RMK A01 T00810033  RH  072%=      5-min Rain = 0
KVA1 150301Z 36003KT 08/03 A3013 RMK A01 T00810033  RH  072%=      5-min Rain = 0
KVA1 150302Z 36004KT 08/03 A3013 RMK A01 T00800033  RH  072%=      5-min Rain = 0
KVA1 150303Z 36005KT 08/03 A3013 RMK A01 T00790033  RH  073%=      5-min Rain = 0
KVA1 150304Z 36005KT 08/03 A3013 RMK A01 T00780033  RH  073%=      5-min Rain = 0
KVA1 150305Z 00006KT 08/03 A3013 RMK A01 T00780032  RH  073%=      5-min Rain = 0
KVA1 150306Z 00006KT 08/03 A3013 RMK A01 T00770032  RH  073%=      5-min Rain = 0
KVA1 150307Z 00006KT 08/03 A3013 RMK A01 T00770032  RH  073%=      5-min Rain = 0
KVA1 150308Z 01006KT 08/03 A3013 RMK A01 T00780032  RH  073%=      5-min Rain = 0
KVA1 150309Z 01005KT 08/03 A3013 RMK A01 T00780032  RH  073%=      5-min Rain = 0
KVA1 150310Z 02006KT 08/03 A3013 RMK A01 T00780032  RH  073%=      5-min Rain = 0
KVA1 150311Z 02006KT 08/03 A3013 RMK A01 T00780032  RH  073%=      5-min Rain = 0
KVA1 150312Z 02006KT 08/03 A3013 RMK A01 T00780032  RH  073%=      5-min Rain = 0
KVA1 150313Z 02006KT 08/03 A3013 RMK A01 T00780032  RH  073%=      5-min Rain = 0
KVA1 150314Z 02005KT 08/03 A3013 RMK A01 T00780032  RH  073%=      5-min Rain = 0
KVA1 150315Z 01005KT 08/03 A3013 RMK A01 T00780032  RH  073%=      5-min Rain = 0
KVA1 150316Z 02005KT 08/03 A3013 RMK A01 T00770033  RH  073%=      5-min Rain = 0
KVA1 150317Z 02006KT 08/03 A3013 RMK A01 T00770033  RH  074%=      5-min Rain = 0
KVA1 150318Z 03006KT 08/03 A3013 RMK A01 T00760033  RH  074%=      5-min Rain = 0
KVA1 150319Z 03006KT 08/03 A3013 RMK A01 T00760032  RH  074%=      5-min Rain = 0
KVA1 150320Z 04005KT 08/03 A3013 RMK A01 T00770032  RH  073%=      5-min Rain = 0
KVA1 150321Z 03005KT 08/03 A3013 RMK A01 T00780032  RH  073%=      5-min Rain = 0
KVA1 150322Z 03005KT 08/03 A3013 RMK A01 T00780032  RH  073%=      5-min Rain = 0
KVA1 150323Z 03005KT 08/03 A3013 RMK A01 T00780032  RH  073%=      5-min Rain = 0
KVA1 150324Z 03005KT 08/03 A3013 RMK A01 T00780032  RH  073%=      5-min Rain = 0
KVA1 150325Z 04005KT 08/03 A3013 RMK A01 T00780032  RH  073%=      5-min Rain = 0
KVA1 150326Z 05004KT 08/03 A3013 RMK A01 T00780032  RH  073%=      5-min Rain = 0
KVA1 150327Z 04004KT 08/03 A3013 RMK A01 T00770032  RH  073%=      5-min Rain = 0
KVA1 150328Z 04005KT 08/03 A3013 RMK A01 T00770032  RH  073%=      5-min Rain = 0
KVA1 150329Z 04005KT 08/03 A3013 RMK A01 T00760033  RH  074%=      5-min Rain = 0
KVA1 150330Z 04005KT 08/03 A3013 RMK A01 T00760032  RH  074%=      5-min Rain = 0
KVA1 150331Z 04004KT 08/03 A3013 RMK A01 T00760032  RH  074%=      5-min Rain = 0
KVA1 150332Z 04004KT 08/03 A3013 RMK A01 T00760032  RH  074%=      5-min Rain = 0
KVA1 150333Z 04004KT 08/03 A3013 RMK A01 T00760032  RH  074%=      5-min Rain = 0
KVA1 150334Z 04004KT 08/03 A3013 RMK A01 T00760032  RH  074%=      5-min Rain = 0
KVA1 150335Z 05004KT 08/03 A3013 RMK A01 T00760032  RH  074%=      5-min Rain = 0
KVA1 150336Z 05004KT 08/03 A3013 RMK A01 T00750032  RH  074%=      5-min Rain = 0
KVA1 150337Z 04003KT 07/03 A3013 RMK A01 T00740033  RH  075%=      5-min Rain = 0
KVA1 150338Z 04003KT 07/03 A3013 RMK A01 T00730033  RH  075%=      5-min Rain = 0
KVA1 150339Z 03003KT 07/03 A3013 RMK A01 T00730032  RH  075%=      5-min Rain = 0
KVA1 150340Z 04003KT 07/03 A3013 RMK A01 T00720032  RH  075%=      5-min Rain = 0
KVA1 150341Z 04004KT 07/03 A3013 RMK A01 T00720032  RH  075%=      5-min Rain = 0
KVA1 150342Z 04004KT 07/03 A3013 RMK A01 T00720032  RH  075%=      5-min Rain = 0
KVA1 150343Z 06002KT 07/03 A3013 RMK A01 T00730032  RH  075%=      5-min Rain = 0
KVA1 150344Z 04002KT 07/03 A3013 RMK A01 T00730032  RH  075%=      5-min Rain = 0
KVA1 150345Z 01001KT 07/03 A3013 RMK A01 T00730033  RH  076%=      5-min Rain = 0
KVA1 150346Z 34000KT 07/03 A3013 RMK A01 T00730032  RH  075%=      5-min Rain = 0
KVA1 150347Z 01001KT 07/03 A3013 RMK A01 T00710030  RH  075%=      5-min Rain = 0
KVA1 150348Z 01002KT 07/03 A3013 RMK A01 T00700030  RH  075%=      5-min Rain = 0
KVA1 150349Z 35001KT 07/03 A3013 RMK A01 T00700030  RH  076%=      5-min Rain = 0
KVA1 150350Z 32000KT 07/03 A3013 RMK A01 T00700030  RH  076%=      5-min Rain = 0
KVA1 150351Z 31001KT 07/03 A3013 RMK A01 T00700030  RH  076%=      5-min Rain = 0
KVA1 150352Z 03001KT 07/03 A3013 RMK A01 T00720031  RH  075%=      5-min Rain = 0
KVA1 150353Z 04003KT 07/03 A3013 RMK A01 T00730031  RH  074%=      5-min Rain = 0
KVA1 150354Z 04003KT 08/03 A3013 RMK A01 T00750031  RH  074%=      5-min Rain = 0
KVA1 150355Z 04004KT 08/03 A3013 RMK A01 T00750030  RH  073%=      5-min Rain = 0
KVA1 150356Z 03004KT 08/03 A3013 RMK A01 T00750031  RH  073%=      5-min Rain = 0
KVA1 150357Z 03003KT 07/03 A3013 RMK A01 T00740031  RH  074%=      5-min Rain = 0
KVA1 150358Z 04002KT 07/03 A3013 RMK A01 T00730031  RH  075%=      5-min Rain = 0
KVA1 150359Z 16001KT 07/03 A3013 RMK A01 T00720032  RH  075%=      5-min Rain = 0
KVA1 150400Z 07001KT 07/03 A3013 RMK A01 T00710032  RH  076%=      5-min Rain = 0
KVA1 150401Z 04001KT 07/03 A3013 RMK A01 T00700031  RH  076%=      5-min Rain = 0
KVA1 150402Z 04000KT 07/03 A3013 RMK A01 T00700031  RH  076%=      5-min Rain = 0
KVA1 150403Z 05000KT 07/03 A3013 RMK A01 T00700032  RH  076%=      5-min Rain = 0
KVA1 150404Z 05002KT 07/03 A3013 RMK A01 T00700032  RH  077%=      5-min Rain = 0
KVA1 150405Z 03001KT 07/03 A3013 RMK A01 T00700031  RH  076%=      5-min Rain = 0
KVA1 150406Z 03002KT 07/03 A3013 RMK A01 T00710031  RH  075%=      5-min Rain = 0
KVA1 150407Z 03002KT 07/03 A3013 RMK A01 T00720031  RH  075%=      5-min Rain = 0
KVA1 150408Z 03002KT 07/03 A3013 RMK A01 T00720031  RH  075%=      5-min Rain = 0
KVA1 150409Z 02002KT 07/03 A3013 RMK A01 T00710031  RH  076%=      5-min Rain = 0
KVA1 150410Z 02002KT 07/03 A3013 RMK A01 T00700031  RH  076%=      5-min Rain = 0
KVA1 150411Z 03002KT 07/03 A3013 RMK A01 T00690031  RH  076%=      5-min Rain = 0
KVA1 150412Z 03003KT 07/03 A3013 RMK A01 T00700030  RH  076%=      5-min Rain = 0
KVA1 150413Z 02003KT 07/03 A3013 RMK A01 T00710030  RH  075%=      5-min Rain = 0
KVA1 150414Z 03003KT 07/03 A3012 RMK A01 T00710030  RH  076%=      5-min Rain = 0
KVA1 150415Z 03003KT 07/03 A3012 RMK A01 T00700031  RH  076%=      5-min Rain = 0
KVA1 150416Z 01002KT 07/03 A3012 RMK A01 T00690031  RH  076%=      5-min Rain = 0
KVA1 150417Z 02003KT 07/03 A3012 RMK A01 T00680029  RH  076%=      5-min Rain = 0
KVA1 150418Z 02003KT 07/03 A3013 RMK A01 T00670029  RH  077%=      5-min Rain = 0
KVA1 150419Z 03003KT 07/03 A3013 RMK A01 T00660029  RH  077%=      5-min Rain = 0
KVA1 150420Z 03003KT 07/03 A3013 RMK A01 T00660030  RH  078%=      5-min Rain = 0
KVA1 150421Z 02003KT 07/03 A3013 RMK A01 T00660030  RH  078%=      5-min Rain = 0
KVA1 150422Z 02003KT 07/03 A3013 RMK A01 T00660030  RH  078%=      5-min Rain = 0
KVA1 150423Z 02003KT 07/03 A3013 RMK A01 T00670030  RH  077%=      5-min Rain = 0
KVA1 150424Z 01003KT 07/03 A3013 RMK A01 T00670030  RH  077%=      5-min Rain = 0
KVA1 150425Z 01002KT 07/03 A3013 RMK A01 T00670029  RH  077%=      5-min Rain = 0
KVA1 150426Z 01002KT 07/03 A3013 RMK A01 T00660027  RH  076%=      5-min Rain = 0
KVA1 150427Z 01002KT 07/03 A3013 RMK A01 T00650026  RH  076%=      5-min Rain = 0
KVA1 150428Z 01002KT 06/03 A3013 RMK A01 T00630026  RH  077%=      5-min Rain = 0
KVA1 150429Z 02003KT 06/03 A3013 RMK A01 T00620027  RH  078%=      5-min Rain = 0
KVA1 150430Z 02002KT 06/03 A3013 RMK A01 T00600028  RH  080%=      5-min Rain = 0
KVA1 150431Z 01002KT 06/03 A3013 RMK A01 T00590028  RH  080%=      5-min Rain = 0
KVA1 150432Z 01002KT 06/03 A3013 RMK A01 T00580027  RH  080%=      5-min Rain = 0
KVA1 150433Z 01003KT 06/03 A3013 RMK A01 T00580027  RH  081%=      5-min Rain = 0
KVA1 150434Z 01003KT 06/03 A3013 RMK A01 T00580028  RH  081%=      5-min Rain = 0
KVA1 150435Z 01003KT 06/03 A3013 RMK A01 T00580029  RH  082%=      5-min Rain = 0
KVA1 150436Z 00003KT 06/03 A3013 RMK A01 T00590030  RH  082%=      5-min Rain = 0
KVA1 150437Z 36003KT 06/03 A3013 RMK A01 T00590030  RH  081%=      5-min Rain = 0
KVA1 150438Z 36004KT 06/03 A3013 RMK A01 T00610030  RH  080%=      5-min Rain = 0
KVA1 150439Z 35004KT 07/03 A3013 RMK A01 T00660031  RH  078%=      5-min Rain = 0
KVA1 150440Z 35005KT 07/03 A3013 RMK A01 T00690030  RH  076%=      5-min Rain = 0
KVA1 150441Z 35005KT 07/03 A3013 RMK A01 T00690029  RH  076%=      5-min Rain = 0
KVA1 150442Z 35005KT 07/03 A3013 RMK A01 T00670028  RH  076%=      5-min Rain = 0
KVA1 150443Z 33004KT 07/03 A3013 RMK A01 T00650028  RH  077%=      5-min Rain = 0
KVA1 150444Z 32003KT 07/03 A3013 RMK A01 T00650028  RH  077%=      5-min Rain = 0
KVA1 150445Z 33003KT 07/03 A3013 RMK A01 T00650029  RH  078%=      5-min Rain = 0
KVA1 150446Z 33002KT 06/03 A3013 RMK A01 T00640029  RH  078%=      5-min Rain = 0
KVA1 150447Z 33002KT 06/03 A3013 RMK A01 T00640029  RH  078%=      5-min Rain = 0
KVA1 150448Z 34003KT 06/03 A3013 RMK A01 T00630029  RH  078%=      5-min Rain = 0
KVA1 150449Z 34003KT 06/03 A3013 RMK A01 T00640029  RH  078%=      5-min Rain = 0
KVA1 150450Z 33003KT 07/03 A3013 RMK A01 T00650029  RH  078%=      5-min Rain = 0
KVA1 150451Z 33004KT 07/03 A3013 RMK A01 T00660029  RH  077%=      5-min Rain = 0
KVA1 150452Z 34005KT 07/03 A3013 RMK A01 T00680030  RH  077%=      5-min Rain = 0
KVA1 150453Z 33005KT 07/03 A3013 RMK A01 T00690030  RH  076%=      5-min Rain = 0
KVA1 150454Z 33004KT 07/03 A3013 RMK A01 T00700030  RH  076%=      5-min Rain = 0
KVA1 150455Z 33005KT 07/03 A3013 RMK A01 T00700029  RH  075%=      5-min Rain = 0
KVA1 150456Z 33004KT 07/03 A3013 RMK A01 T00700031  RH  076%=      5-min Rain = 0
KVA1 150457Z 32004KT 07/03 A3013 RMK A01 T00700031  RH  076%=      5-min Rain = 0
KVA1 150458Z 31004KT 07/03 A3013 RMK A01 T00690030  RH  076%=      5-min Rain = 0
KVA1 150459Z 31005KT 07/03 A3013 RMK A01 T00690030  RH  076%=      5-min Rain = 0
KVA1 150500Z 32004KT 07/03 A3013 RMK A01 T00690030  RH  076%=      5-min Rain = 0
KVA1 150501Z 33004KT 07/03 A3013 RMK A01 T00690030  RH  076%=      5-min Rain = 0
KVA1 150502Z 32004KT 07/03 A3013 RMK A01 T00700031  RH  076%=      5-min Rain = 0
KVA1 150503Z 31003KT 07/03 A3013 RMK A01 T00710031  RH  076%=      5-min Rain = 0
KVA1 150504Z 32004KT 07/03 A3013 RMK A01 T00700030  RH  075%=      5-min Rain = 0
KVA1 150505Z 30004KT 07/03 A3013 RMK A01 T00700030  RH  076%=      5-min Rain = 0
KVA1 150506Z 30003KT 07/03 A3013 RMK A01 T00690029  RH  075%=      5-min Rain = 0
KVA1 150507Z 32003KT 07/03 A3013 RMK A01 T00690029  RH  076%=      5-min Rain = 0
KVA1 150508Z 30003KT 07/03 A3013 RMK A01 T00700029  RH  075%=      5-min Rain = 0
KVA1 150509Z 30003KT 07/03 A3013 RMK A01 T00710029  RH  075%=      5-min Rain = 0
KVA1 150510Z 31004KT 07/03 A3013 RMK A01 T00700028  RH  075%=      5-min Rain = 0
KVA1 150511Z 31004KT 07/03 A3013 RMK A01 T00690029  RH  075%=      5-min Rain = 0
KVA1 150512Z 29003KT 07/03 A3013 RMK A01 T00690029  RH  075%=      5-min Rain = 0
KVA1 150513Z 30004KT 07/03 A3013 RMK A01 T00690029  RH  076%=      5-min Rain = 0
KVA1 150514Z 30003KT 07/03 A3013 RMK A01 T00690029  RH  076%=      5-min Rain = 0
KVA1 150515Z 28003KT 07/03 A3013 RMK A01 T00710029  RH  075%=      5-min Rain = 0
KVA1 150516Z 28003KT 07/03 A3013 RMK A01 T00710028  RH  074%=      5-min Rain = 0
KVA1 150517Z 29004KT 07/03 A3013 RMK A01 T00740028  RH  073%=      5-min Rain = 0
KVA1 150518Z 27003KT 07/03 A3013 RMK A01 T00730028  RH  073%=      5-min Rain = 0
KVA1 150519Z 26004KT 07/03 A3013 RMK A01 T00720028  RH  073%=      5-min Rain = 0
KVA1 150520Z 27004KT 07/03 A3013 RMK A01 T00710027  RH  074%=      5-min Rain = 0
KVA1 150521Z 25004KT 07/03 A3013 RMK A01 T00690027  RH  074%=      5-min Rain = 0
KVA1 150522Z 23004KT 07/03 A3013 RMK A01 T00690027  RH  075%=      5-min Rain = 0
KVA1 150523Z 25005KT 07/03 A3012 RMK A01 T00690027  RH  075%=      5-min Rain = 0
KVA1 150524Z 26005KT 07/03 A3012 RMK A01 T00680026  RH  074%=      5-min Rain = 0
KVA1 150525Z 23006KT 07/03 A3012 RMK A01 T00680025  RH  074%=      5-min Rain = 0
KVA1 150526Z 24006KT 07/02 A3012 RMK A01 T00680024  RH  074%=      5-min Rain = 0
KVA1 150527Z 23006KT 07/02 A3012 RMK A01 T00680024  RH  073%=      5-min Rain = 0
KVA1 150528Z 23006KT 07/02 A3012 RMK A01 T00680024  RH  073%=      5-min Rain = 0
KVA1 150529Z 22006KT 07/02 A3012 RMK A01 T00680023  RH  073%=      5-min Rain = 0
KVA1 150530Z 23005KT 07/02 A3012 RMK A01 T00690022  RH  072%=      5-min Rain = 0
KVA1 150531Z 23005KT 07/02 A3012 RMK A01 T00700022  RH  071%=      5-min Rain = 0
KVA1 150532Z 23005KT 07/02 A3012 RMK A01 T00710021  RH  070%=      5-min Rain = 0
KVA1 150533Z 24005KT 07/02 A3012 RMK A01 T00740019  RH  068%=      5-min Rain = 0
KVA1 150534Z 24005KT 08/02 A3012 RMK A01 T00750020  RH  068%=      5-min Rain = 0
KVA1 150535Z 24005KT 08/02 A3012 RMK A01 T00760020  RH  068%=      5-min Rain = 0
KVA1 150536Z 23005KT 08/02 A3012 RMK A01 T00760019  RH  067%=      5-min Rain = 0
KVA1 150537Z 24005KT 08/02 A3012 RMK A01 T00760019  RH  067%=      5-min Rain = 0
KVA1 150538Z 24005KT 08/02 A3012 RMK A01 T00760018  RH  067%=      5-min Rain = 0
KVA1 150539Z 24005KT 08/02 A3012 RMK A01 T00760018  RH  067%=      5-min Rain = 0
KVA1 150540Z 23006KT 08/02 A3012 RMK A01 T00750018  RH  067%=      5-min Rain = 0
KVA1 150541Z 24007KT 08/02 A3012 RMK A01 T00750018  RH  067%=      5-min Rain = 0
KVA1 150542Z 24004KT 08/02 A3012 RMK A01 T00750017  RH  067%=      5-min Rain = 0
KVA1 150543Z 24005KT 08/02 A3012 RMK A01 T00760016  RH  066%=      5-min Rain = 0
KVA1 150544Z 23006KT 08/02 A3012 RMK A01 T00760017  RH  066%=      5-min Rain = 0
KVA1 150545Z 23006KT 08/02 A3012 RMK A01 T00770015  RH  065%=      5-min Rain = 0
KVA1 150546Z 23005KT 08/02 A3012 RMK A01 T00780015  RH  064%=      5-min Rain = 0
KVA1 150547Z 24004KT 08/02 A3012 RMK A01 T00780015  RH  064%=      5-min Rain = 0
KVA1 150548Z 25005KT 08/02 A3012 RMK A01 T00780015  RH  065%=      5-min Rain = 0
KVA1 150549Z 24005KT 08/02 A3012 RMK A01 T00780015  RH  065%=      5-min Rain = 0
KVA1 150550Z 23005KT 08/02 A3012 RMK A01 T00770015  RH  065%=      5-min Rain = 0
KVA1 150551Z 24006KT 08/02 A3012 RMK A01 T00770015  RH  065%=      5-min Rain = 0
KVA1 150552Z 24006KT 08/02 A3012 RMK A01 T00750015  RH  066%=      5-min Rain = 0
KVA1 150553Z 24006KT 07/02 A3012 RMK A01 T00740015  RH  066%=      5-min Rain = 0
KVA1 150554Z 24006KT 07/02 A3012 RMK A01 T00730015  RH  066%=      5-min Rain = 0
KVA1 150555Z 23006KT 07/02 A3012 RMK A01 T00730015  RH  067%=      5-min Rain = 0
KVA1 150556Z 24006KT 07/02 A3012 RMK A01 T00720015  RH  067%=      5-min Rain = 0
KVA1 150557Z 24006KT 07/02 A3012 RMK A01 T00710015  RH  068%=      5-min Rain = 0
KVA1 150558Z 24006KT 07/02 A3012 RMK A01 T00710015  RH  068%=      5-min Rain = 0
KVA1 150559Z 25007KT 07/02 A3012 RMK A01 T00700016  RH  068%=      5-min Rain = 0

Page generated in 0.1528 seconds.